Time,TemperatureF,DewpointF,PressureIn,WindDirection,WindDirectionDegrees,WindSpeedMPH,WindSpeedGustMPH,Humidity,HourlyPrecipIn,Conditions,Clouds,dailyrainin,SolarRadiationWatts/m^2,SoftwareType,DateUTC
2013-02-05 00:00:00,40.5,25.6,30.10,SSW,207,10.0,16.0,55,0.00,,OVC,0.00,0.0,WeatherDisplay:10.37,2013-02-05 05:00:00,
2013-02-05 00:01:00,40.5,25.6,30.10,SSW,204,9.8,13.8,55,0.00,,OVC,0.00,0.0,WeatherDisplay:10.37,2013-02-05 05:01:00,
2013-02-05 00:06:00,40.6,25.7,30.09,SSW,211,9.9,12.0,55,0.00,,OVC,0.00,0.0,WeatherDisplay:10.37,2013-02-05 05:06:00,
2013-02-05 00:07:00,40.6,25.7,30.09,SSW,213,10.9,11.5,55,0.00,,OVC,0.00,0.0,WeatherDisplay:10.37,2013-02-05 05:07:00,
2013-02-05 00:11:00,40.6,25.7,30.09,SW,214,10.8,12.7,55,0.00,,OVC,0.00,0.0,WeatherDisplay:10.37,2013-02-05 05:11:00,
2013-02-05 00:12:00,40.8,25.9,30.09,SSW,200,11.0,12.7,55,0.00,,OVC,0.00,0.0,WeatherDisplay:10.37,2013-02-05 05:12:00,
2013-02-05 00:13:00,40.6,25.2,30.09,SW,219,9.7,12.7,54,0.00,,OVC,0.00,0.0,WeatherDisplay:10.37,2013-02-05 05:13:00,
2013-02-05 00:17:00,40.8,25.9,30.09,SW,220,11.3,15.0,55,0.00,,OVC,0.00,0.0,WeatherDisplay:10.37,2013-02-05 05:17:00,
2013-02-05 00:18:00,40.8,25.4,30.09,SW,218,8.5,11.5,54,0.00,,OVC,0.00,0.0,WeatherDisplay:10.37,2013-02-05 05:18:00,
2013-02-05 00:19:00,40.8,25.9,30.09,SW,232,9.1,11.5,55,0.00,,OVC,0.00,0.0,WeatherDisplay:10.37,2013-02-05 05:19:00,
2013-02-05 00:20:00,40.8,25.9,30.09,SW,222,10.2,11.5,55,0.00,,OVC,0.00,0.0,WeatherDisplay:10.37,2013-02-05 05:20:00,
2013-02-05 00:24:00,40.8,25.4,30.09,SSW,210,7.8,10.4,54,0.00,,OVC,0.00,0.0,WeatherDisplay:10.37,2013-02-05 05:24:00,
2013-02-05 00:26:00,40.6,25.7,30.09,SSW,196,9.2,11.5,55,0.00,,OVC,0.00,0.0,WeatherDisplay:10.37,2013-02-05 05:26:00,
2013-02-05 00:29:00,40.6,25.7,30.09,SSW,212,5.8,8.1,55,0.00,,OVC,0.00,0.0,WeatherDisplay:10.37,2013-02-05 05:29:00,
2013-02-05 00:31:00,40.6,25.7,30.09,SSW,203,7.8,10.4,55,0.00,,OVC,0.00,0.0,WeatherDisplay:10.37,2013-02-05 05:31:00,
2013-02-05 00:34:00,40.5,25.6,30.08,SW,217,9.6,11.5,55,0.00,,OVC,0.00,0.0,WeatherDisplay:10.37,2013-02-05 05:34:00,
2013-02-05 00:38:00,40.3,25.4,30.08,SSW,213,9.1,11.5,55,0.00,,OVC,0.00,0.0,WeatherDisplay:10.37,2013-02-05 05:38:00,
2013-02-05 00:39:00,40.3,25.4,30.08,SSW,212,7.6,11.5,55,0.00,,OVC,0.00,0.0,WeatherDisplay:10.37,2013-02-05 05:39:00,
2013-02-05 00:43:00,40.2,25.3,30.08,SSW,210,10.9,12.7,55,0.00,,OVC,0.00,0.0,WeatherDisplay:10.37,2013-02-05 05:43:00,
2013-02-05 00:45:00,40.2,25.3,30.08,SSW,210,9.0,13.0,55,0.00,,OVC,0.00,0.0,WeatherDisplay:10.37,2013-02-05 05:45:00,
2013-02-05 00:46:00,40.2,25.3,30.08,SSW,204,8.7,12.0,55,0.00,,OVC,0.00,0.0,WeatherDisplay:10.37,2013-02-05 05:46:00,
2013-02-05 00:52:00,40.1,25.6,30.07,SSW,202,7.9,11.5,56,0.00,,OVC,0.00,0.0,WeatherDisplay:10.37,2013-02-05 05:52:00,
2013-02-05 00:53:00,39.9,25.5,30.07,SSW,205,7.5,10.0,56,0.00,,OVC,0.00,0.0,WeatherDisplay:10.37,2013-02-05 05:53:00,
2013-02-05 00:57:00,39.9,25.9,30.07,SSW,211,5.9,10.4,57,0.00,,OVC,0.00,0.0,WeatherDisplay:10.37,2013-02-05 05:57:00,
2013-02-05 00:59:00,39.9,25.9,30.07,SSW,211,4.3,5.8,57,0.00,,OVC,0.00,0.0,WeatherDisplay:10.37,2013-02-05 05:59:00,
2013-02-05 01:00:00,39.8,25.8,30.07,SSW,211,3.6,6.0,57,0.00,,OVC,0.00,0.0,WeatherDisplay:10.37,2013-02-05 06:00:00,
2013-02-05 01:03:00,39.8,25.8,30.07,SSW,211,5.2,9.0,57,0.00,,OVC,0.00,0.0,WeatherDisplay:10.37,2013-02-05 06:03:00,
2013-02-05 01:04:00,39.8,25.8,30.07,SSW,213,5.2,9.2,57,0.00,,OVC,0.00,0.0,WeatherDisplay:10.37,2013-02-05 06:04:00,
2013-02-05 01:05:00,39.8,25.8,30.07,SW,214,5.7,9.2,57,0.00,,OVC,0.00,0.0,WeatherDisplay:10.37,2013-02-05 06:05:00,
2013-02-05 01:06:00,39.8,25.8,30.07,SW,214,4.9,6.9,57,0.00,,OVC,0.00,0.0,WeatherDisplay:10.37,2013-02-05 06:06:00,
2013-02-05 01:09:00,39.6,25.6,30.07,SW,214,3.8,6.0,57,0.00,,OVC,0.00,0.0,WeatherDisplay:10.37,2013-02-05 06:09:00,
2013-02-05 01:10:00,39.6,25.6,30.07,SW,215,4.4,6.9,57,0.00,,OVC,0.00,0.0,WeatherDisplay:10.37,2013-02-05 06:10:00,
2013-02-05 01:11:00,39.6,25.6,30.07,SW,215,4.2,6.9,57,0.00,,OVC,0.00,0.0,WeatherDisplay:10.37,2013-02-05 06:11:00,
2013-02-05 01:13:00,39.6,26.0,30.07,SW,215,5.4,7.0,58,0.00,,OVC,0.00,0.0,WeatherDisplay:10.37,2013-02-05 06:13:00,
2013-02-05 01:16:00,39.6,25.6,30.07,SW,215,4.7,5.8,57,0.00,,OVC,0.00,0.0,WeatherDisplay:10.37,2013-02-05 06:16:00,
2013-02-05 01:17:00,39.6,25.6,30.07,SW,215,5.5,6.9,57,0.00,,OVC,0.00,0.0,WeatherDisplay:10.37,2013-02-05 06:17:00,
2013-02-05 01:18:00,39.6,25.6,30.06,SW,215,5.1,6.0,57,0.00,,OVC,0.00,0.0,WeatherDisplay:10.37,2013-02-05 06:18:00,
2013-02-05 01:23:00,39.5,25.9,30.06,SSW,211,6.0,8.1,58,0.00,,OVC,0.00,0.0,WeatherDisplay:10.37,2013-02-05 06:23:00,
2013-02-05 01:24:00,39.5,25.9,30.06,SSW,209,6.4,8.1,58,0.00,,OVC,0.00,0.0,WeatherDisplay:10.37,2013-02-05 06:24:00,
2013-02-05 01:27:00,39.5,25.9,30.06,SSW,202,6.8,9.2,58,0.00,,OVC,0.00,0.0,WeatherDisplay:10.37,2013-02-05 06:27:00,
2013-02-05 01:30:00,39.5,25.9,30.06,SSW,199,8.0,11.5,58,0.00,,OVC,0.00,0.0,WeatherDisplay:10.37,2013-02-05 06:30:00,
2013-02-05 01:32:00,39.5,25.9,30.06,SSW,200,6.6,10.4,58,0.00,,OVC,0.00,0.0,WeatherDisplay:10.37,2013-02-05 06:32:00,
2013-02-05 01:33:00,39.5,25.9,30.06,SSW,202,7.5,10.4,58,0.00,,OVC,0.00,0.0,WeatherDisplay:10.37,2013-02-05 06:33:00,
2013-02-05 01:34:00,39.5,25.9,30.06,SSW,205,7.4,8.1,58,0.00,,OVC,0.00,0.0,WeatherDisplay:10.37,2013-02-05 06:34:00,
2013-02-05 01:35:00,39.5,25.9,30.06,SSW,205,7.5,8.1,58,0.00,,OVC,0.00,0.0,WeatherDisplay:10.37,2013-02-05 06:35:00,
2013-02-05 01:37:00,39.6,26.0,30.06,SSW,205,7.6,10.4,58,0.00,,OVC,0.00,0.0,WeatherDisplay:10.37,2013-02-05 06:37:00,
2013-02-05 01:38:00,39.6,26.0,30.06,SSW,210,9.0,10.4,58,0.00,,OVC,0.00,0.0,WeatherDisplay:10.37,2013-02-05 06:38:00,
2013-02-05 01:41:00,39.8,26.2,30.06,SSW,212,7.6,10.4,58,0.00,,OVC,0.00,0.0,WeatherDisplay:10.37,2013-02-05 06:41:00,
2013-02-05 01:42:00,39.8,26.2,30.06,SSW,211,5.4,8.1,58,0.00,,OVC,0.00,0.0,WeatherDisplay:10.37,2013-02-05 06:42:00,
2013-02-05 01:43:00,39.8,26.2,30.06,SSW,206,8.2,12.7,58,0.00,,OVC,0.00,0.0,WeatherDisplay:10.37,2013-02-05 06:43:00,
2013-02-05 01:44:00,39.9,25.9,30.06,SSW,204,10.3,12.7,57,0.00,,OVC,0.00,0.0,WeatherDisplay:10.37,2013-02-05 06:44:00,
2013-02-05 01:46:00,39.9,25.9,30.06,SSW,207,7.0,11.5,57,0.00,,OVC,0.00,0.0,WeatherDisplay:10.37,2013-02-05 06:46:00,
2013-02-05 01:48:00,39.9,25.9,30.06,SSW,207,5.4,6.9,57,0.00,,OVC,0.00,0.0,WeatherDisplay:10.37,2013-02-05 06:48:00,
2013-02-05 01:49:00,39.9,26.3,30.06,SSW,205,6.8,11.0,58,0.00,,OVC,0.00,0.0,WeatherDisplay:10.37,2013-02-05 06:49:00,
2013-02-05 01:50:00,39.9,26.3,30.06,SSW,211,7.4,11.5,58,0.00,,OVC,0.00,0.0,WeatherDisplay:10.37,2013-02-05 06:50:00,
2013-02-05 01:54:00,39.9,25.9,30.06,SSW,211,7.0,10.4,57,0.00,,OVC,0.00,0.0,WeatherDisplay:10.37,2013-02-05 06:54:00,
2013-02-05 01:55:00,39.9,25.9,30.06,SSW,209,6.4,10.4,57,0.00,,OVC,0.00,0.0,WeatherDisplay:10.37,2013-02-05 06:55:00,
2013-02-05 01:56:00,39.9,26.3,30.06,SSW,206,8.1,9.2,58,0.00,,OVC,0.00,0.0,WeatherDisplay:10.37,2013-02-05 06:56:00,
2013-02-05 01:57:00,40.1,26.1,30.06,SSW,209,8.9,11.5,57,0.00,,OVC,0.00,0.0,WeatherDisplay:10.37,2013-02-05 06:57:00,
2013-02-05 01:59:00,40.1,26.5,30.06,SSW,204,9.1,11.5,58,0.00,,OVC,0.00,0.0,WeatherDisplay:10.37,2013-02-05 06:59:00,
2013-02-05 02:00:00,40.1,26.5,30.06,SSW,205,9.2,11.5,58,0.00,,OVC,0.00,0.0,WeatherDisplay:10.37,2013-02-05 07:00:00,
2013-02-05 02:03:00,40.1,26.1,30.05,SSW,208,6.2,11.5,57,0.00,,OVC,0.00,0.0,WeatherDisplay:10.37,2013-02-05 07:03:00,
2013-02-05 02:05:00,40.1,26.1,30.05,SW,219,5.8,10.4,57,0.00,,OVC,0.00,0.0,WeatherDisplay:10.37,2013-02-05 07:05:00,
2013-02-05 02:08:00,40.1,26.5,30.05,SW,219,6.3,9.2,58,0.00,,OVC,0.00,0.0,WeatherDisplay:10.37,2013-02-05 07:08:00,
2013-02-05 02:09:00,40.1,26.5,30.05,SSW,208,7.1,10.0,58,0.00,,OVC,0.00,0.0,WeatherDisplay:10.37,2013-02-05 07:09:00,
2013-02-05 02:12:00,40.2,26.2,30.05,SW,221,7.3,9.2,57,0.00,,OVC,0.00,0.0,WeatherDisplay:10.37,2013-02-05 07:12:00,
2013-02-05 02:13:00,40.2,26.2,30.05,SW,218,7.3,9.2,57,0.00,,OVC,0.00,0.0,WeatherDisplay:10.37,2013-02-05 07:13:00,
2013-02-05 02:14:00,40.2,26.2,30.05,SSW,211,6.4,9.2,57,0.00,,OVC,0.00,0.0,WeatherDisplay:10.37,2013-02-05 07:14:00,
2013-02-05 02:15:00,40.2,26.6,30.05,SW,216,6.0,12.0,58,0.00,,OVC,0.00,0.0,WeatherDisplay:10.37,2013-02-05 07:15:00,
2013-02-05 02:17:00,40.2,26.6,30.05,SSW,207,6.0,9.2,58,0.00,,OVC,0.00,0.0,WeatherDisplay:10.37,2013-02-05 07:17:00,
2013-02-05 02:20:00,40.2,26.2,30.04,SSW,213,7.4,10.4,57,0.00,,OVC,0.00,0.0,WeatherDisplay:10.37,2013-02-05 07:20:00,
2013-02-05 02:22:00,40.3,26.3,30.04,SW,232,8.0,11.5,57,0.00,,OVC,0.00,0.0,WeatherDisplay:10.37,2013-02-05 07:22:00,
2013-02-05 02:23:00,40.3,26.3,30.04,SW,217,6.2,11.5,57,0.00,,OVC,0.00,0.0,WeatherDisplay:10.37,2013-02-05 07:23:00,
2013-02-05 02:26:00,40.3,26.3,30.04,SW,216,5.9,6.9,57,0.00,,OVC,0.00,0.0,WeatherDisplay:10.37,2013-02-05 07:26:00,
2013-02-05 02:27:00,40.3,26.3,30.04,SW,217,5.5,6.9,57,0.00,,OVC,0.00,0.0,WeatherDisplay:10.37,2013-02-05 07:27:00,
2013-02-05 02:28:00,40.3,26.7,30.04,SW,217,5.5,7.0,58,0.00,,OVC,0.00,0.0,WeatherDisplay:10.37,2013-02-05 07:28:00,
2013-02-05 02:29:00,40.3,26.3,30.04,SW,217,4.3,5.8,57,0.00,,OVC,0.00,0.0,WeatherDisplay:10.37,2013-02-05 07:29:00,
2013-02-05 02:32:00,40.3,26.3,30.04,SW,227,6.2,6.9,57,0.00,,OVC,0.00,0.0,WeatherDisplay:10.37,2013-02-05 07:32:00,
2013-02-05 02:33:00,40.3,26.3,30.05,SW,227,5.9,6.9,57,0.00,,OVC,0.00,0.0,WeatherDisplay:10.37,2013-02-05 07:33:00,
2013-02-05 02:34:00,40.3,26.7,30.05,SW,227,5.1,6.9,58,0.00,,OVC,0.00,0.0,WeatherDisplay:10.37,2013-02-05 07:34:00,
2013-02-05 02:37:00,40.3,26.3,30.05,SW,217,6.1,11.5,57,0.00,,OVC,0.00,0.0,WeatherDisplay:10.37,2013-02-05 07:37:00,
2013-02-05 02:39:00,40.3,26.7,30.05,SW,217,5.3,6.9,58,0.00,,OVC,0.00,0.0,WeatherDisplay:10.37,2013-02-05 07:39:00,
2013-02-05 02:42:00,40.2,26.6,30.05,SW,217,3.4,4.6,58,0.00,,OVC,0.00,0.0,WeatherDisplay:10.37,2013-02-05 07:42:00,
2013-02-05 02:43:00,40.2,26.6,30.05,SW,217,3.0,4.6,58,0.00,,OVC,0.00,0.0,WeatherDisplay:10.37,2013-02-05 07:43:00,
2013-02-05 02:46:00,40.1,26.5,30.05,SW,218,3.0,4.6,58,0.00,,OVC,0.00,0.0,WeatherDisplay:10.37,2013-02-05 07:46:00,
2013-02-05 02:47:00,40.1,26.5,30.05,SW,218,3.4,5.0,58,0.00,,OVC,0.00,0.0,WeatherDisplay:10.37,2013-02-05 07:47:00,
2013-02-05 02:48:00,40.1,26.5,30.04,SW,218,4.4,5.0,58,0.00,,OVC,0.00,0.0,WeatherDisplay:10.37,2013-02-05 07:48:00,
2013-02-05 02:52:00,40.1,26.5,30.04,SW,218,3.2,4.0,58,0.00,,OVC,0.00,0.0,WeatherDisplay:10.37,2013-02-05 07:52:00,
2013-02-05 02:53:00,40.1,26.5,30.04,SW,218,2.9,4.6,58,0.00,,OVC,0.00,0.0,WeatherDisplay:10.37,2013-02-05 07:53:00,
2013-02-05 02:57:00,39.9,26.3,30.04,SW,218,2.7,3.5,58,0.00,,OVC,0.00,0.0,WeatherDisplay:10.37,2013-02-05 07:57:00,
2013-02-05 02:58:00,40.1,26.5,30.04,SW,218,2.4,3.5,58,0.00,,OVC,0.00,0.0,WeatherDisplay:10.37,2013-02-05 07:58:00,
2013-02-05 02:59:00,39.9,26.3,30.04,SW,218,2.7,3.5,58,0.00,,OVC,0.00,0.0,WeatherDisplay:10.37,2013-02-05 07:59:00,
2013-02-05 03:04:00,40.1,26.5,30.04,SW,218,2.3,3.5,58,0.00,,OVC,0.00,0.0,WeatherDisplay:10.37,2013-02-05 08:04:00,
2013-02-05 03:05:00,40.1,26.5,30.04,SW,218,2.3,3.5,58,0.00,,OVC,0.00,0.0,WeatherDisplay:10.37,2013-02-05 08:05:00,
2013-02-05 03:06:00,40.1,26.5,30.04,SW,218,3.2,4.0,58,0.00,,OVC,0.00,0.0,WeatherDisplay:10.37,2013-02-05 08:06:00,
2013-02-05 03:09:00,40.1,26.5,30.04,SW,218,2.9,3.5,58,0.00,,OVC,0.00,0.0,WeatherDisplay:10.37,2013-02-05 08:09:00,
2013-02-05 03:10:00,40.1,26.5,30.04,SW,218,3.3,4.0,58,0.00,,OVC,0.00,0.0,WeatherDisplay:10.37,2013-02-05 08:10:00,
2013-02-05 03:11:00,40.1,26.5,30.04,SW,218,2.9,3.5,58,0.00,,OVC,0.00,0.0,WeatherDisplay:10.37,2013-02-05 08:11:00,
2013-02-05 03:14:00,40.1,26.5,30.04,SW,218,2.4,4.0,58,0.00,,OVC,0.00,0.0,WeatherDisplay:10.37,2013-02-05 08:14:00,
2013-02-05 03:15:00,40.1,26.5,30.04,SW,218,2.0,4.0,58,0.00,,OVC,0.00,0.0,WeatherDisplay:10.37,2013-02-05 08:15:00,
2013-02-05 03:17:00,40.1,26.5,30.04,SW,218,2.5,4.0,58,0.00,,OVC,0.00,0.0,WeatherDisplay:10.37,2013-02-05 08:17:00,
2013-02-05 03:19:00,40.1,26.5,30.04,SW,218,3.5,4.6,58,0.00,,OVC,0.00,0.0,WeatherDisplay:10.37,2013-02-05 08:19:00,
2013-02-05 03:21:00,40.1,26.5,30.04,SW,218,2.9,3.5,58,0.00,,OVC,0.00,0.0,WeatherDisplay:10.37,2013-02-05 08:21:00,
2013-02-05 03:24:00,40.1,26.5,30.04,SW,218,2.7,3.5,58,0.00,,OVC,0.00,0.0,WeatherDisplay:10.37,2013-02-05 08:24:00,
2013-02-05 03:25:00,40.1,26.5,30.04,SW,218,3.0,3.5,58,0.00,,OVC,0.00,0.0,WeatherDisplay:10.37,2013-02-05 08:25:00,
2013-02-05 03:26:00,40.1,26.5,30.04,SW,218,2.8,3.5,58,0.00,,OVC,0.00,0.0,WeatherDisplay:10.37,2013-02-05 08:26:00,
2013-02-05 03:27:00,40.1,26.5,30.04,SW,218,3.5,4.0,58,0.00,,OVC,0.00,0.0,WeatherDisplay:10.37,2013-02-05 08:27:00,
2013-02-05 03:29:00,40.2,26.6,30.04,SW,218,4.2,5.8,58,0.00,,OVC,0.00,0.0,WeatherDisplay:10.37,2013-02-05 08:29:00,
2013-02-05 03:30:00,40.2,26.6,30.04,SW,218,3.8,5.8,58,0.00,,OVC,0.00,0.0,WeatherDisplay:10.37,2013-02-05 08:30:00,
2013-02-05 03:31:00,40.1,26.5,30.04,SW,218,3.9,4.6,58,0.00,,OVC,0.00,0.0,WeatherDisplay:10.37,2013-02-05 08:31:00,
2013-02-05 03:32:00,40.1,26.5,30.04,SW,218,3.5,4.0,58,0.00,,OVC,0.00,0.0,WeatherDisplay:10.37,2013-02-05 08:32:00,
2013-02-05 03:34:00,40.1,26.5,30.04,SW,218,4.8,5.8,58,0.00,,OVC,0.00,0.0,WeatherDisplay:10.37,2013-02-05 08:34:00,
2013-02-05 03:35:00,40.1,26.5,30.04,SW,218,4.7,6.0,58,0.00,,OVC,0.00,0.0,WeatherDisplay:10.37,2013-02-05 08:35:00,
2013-02-05 03:37:00,40.1,26.5,30.04,SW,218,4.8,5.8,58,0.00,,OVC,0.00,0.0,WeatherDisplay:10.37,2013-02-05 08:37:00,
2013-02-05 03:40:00,39.9,26.7,30.04,SW,218,4.9,5.8,59,0.00,,OVC,0.00,0.0,WeatherDisplay:10.37,2013-02-05 08:40:00,
2013-02-05 03:41:00,39.9,26.7,30.04,SW,218,4.8,5.8,59,0.00,,OVC,0.00,0.0,WeatherDisplay:10.37,2013-02-05 08:41:00,
2013-02-05 03:42:00,39.9,26.7,30.04,SW,217,5.0,6.0,59,0.00,,OVC,0.00,0.0,WeatherDisplay:10.37,2013-02-05 08:42:00,
2013-02-05 03:46:00,39.6,26.4,30.04,SSW,209,5.9,6.9,59,0.00,,OVC,0.00,0.0,WeatherDisplay:10.37,2013-02-05 08:46:00,
2013-02-05 03:47:00,39.6,26.8,30.04,SSW,203,6.1,9.2,60,0.00,,OVC,0.00,0.0,WeatherDisplay:10.37,2013-02-05 08:47:00,
2013-02-05 03:49:00,39.5,27.2,30.03,SSW,198,7.3,8.1,61,0.00,,OVC,0.00,0.0,WeatherDisplay:10.37,2013-02-05 08:49:00,
2013-02-05 03:51:00,39.3,27.0,30.03,SSW,196,7.3,10.4,61,0.00,,OVC,0.00,0.0,WeatherDisplay:10.37,2013-02-05 08:51:00,
2013-02-05 03:52:00,39.3,27.0,30.03,SSW,195,6.5,9.2,61,0.00,,OVC,0.00,0.0,WeatherDisplay:10.37,2013-02-05 08:52:00,
2013-02-05 03:55:00,39.3,27.4,30.03,SSW,196,6.3,6.9,62,0.00,,OVC,0.00,0.0,WeatherDisplay:10.37,2013-02-05 08:55:00,
2013-02-05 03:57:00,39.5,27.5,30.03,SSW,196,5.9,8.1,62,0.00,,OVC,0.00,0.0,WeatherDisplay:10.37,2013-02-05 08:57:00,
2013-02-05 03:58:00,39.5,27.5,30.03,SSW,196,5.5,8.1,62,0.00,,OVC,0.00,0.0,WeatherDisplay:10.37,2013-02-05 08:58:00,
2013-02-05 04:01:00,39.5,27.5,30.03,SSW,196,4.9,6.9,62,0.00,,OVC,0.00,0.0,WeatherDisplay:10.37,2013-02-05 09:01:00,
2013-02-05 04:03:00,39.5,27.5,30.03,SSW,195,6.1,9.0,62,0.00,,OVC,0.00,0.0,WeatherDisplay:10.37,2013-02-05 09:03:00,
2013-02-05 04:04:00,39.5,27.5,30.03,SSW,194,6.5,9.2,62,0.00,,OVC,0.00,0.0,WeatherDisplay:10.37,2013-02-05 09:04:00,
2013-02-05 04:06:00,39.6,27.2,30.03,South,191,6.8,9.2,61,0.00,,OVC,0.00,0.0,WeatherDisplay:10.37,2013-02-05 09:06:00,
2013-02-05 04:08:00,39.6,27.2,30.03,South,186,7.7,10.4,61,0.00,,OVC,0.00,0.0,WeatherDisplay:10.37,2013-02-05 09:08:00,
2013-02-05 04:09:00,39.6,27.2,30.03,South,186,6.7,10.4,61,0.00,,OVC,0.00,0.0,WeatherDisplay:10.37,2013-02-05 09:09:00,
2013-02-05 04:13:00,39.8,27.4,30.03,South,186,6.1,9.2,61,0.00,,OVC,0.00,0.0,WeatherDisplay:10.37,2013-02-05 09:13:00,
2013-02-05 04:14:00,39.8,27.4,30.03,South,186,5.0,6.9,61,0.00,,OVC,0.00,0.0,WeatherDisplay:10.37,2013-02-05 09:14:00,
2013-02-05 04:15:00,39.8,27.4,30.03,South,186,4.2,6.9,61,0.00,,OVC,0.00,0.0,WeatherDisplay:10.37,2013-02-05 09:15:00,
2013-02-05 04:16:00,39.6,27.2,30.03,South,186,4.6,6.9,61,0.00,,OVC,0.00,0.0,WeatherDisplay:10.37,2013-02-05 09:16:00,
2013-02-05 04:21:00,39.8,27.4,30.03,South,186,2.8,3.5,61,0.00,,OVC,0.00,0.0,WeatherDisplay:10.37,2013-02-05 09:21:00,
2013-02-05 04:22:00,39.8,27.4,30.03,South,186,2.4,3.5,61,0.00,,OVC,0.00,0.0,WeatherDisplay:10.37,2013-02-05 09:22:00,
2013-02-05 04:26:00,39.8,27.4,30.03,South,186,0.5,2.0,61,0.00,,OVC,0.00,0.0,WeatherDisplay:10.37,2013-02-05 09:26:00,
2013-02-05 04:27:00,39.6,27.2,30.03,South,187,2.6,5.0,61,0.00,,OVC,0.00,0.0,WeatherDisplay:10.37,2013-02-05 09:27:00,
2013-02-05 04:32:00,39.6,27.2,30.03,South,187,2.6,4.0,61,0.00,,OVC,0.00,0.0,WeatherDisplay:10.37,2013-02-05 09:32:00,
2013-02-05 04:33:00,39.6,27.2,30.03,South,187,2.8,3.5,61,0.00,,OVC,0.00,0.0,WeatherDisplay:10.37,2013-02-05 09:33:00,
2013-02-05 04:37:00,39.6,26.8,30.03,South,187,3.2,3.5,60,0.00,,OVC,0.00,0.0,WeatherDisplay:10.37,2013-02-05 09:37:00,
2013-02-05 04:38:00,39.8,27.0,30.03,South,187,2.9,3.5,60,0.00,,OVC,0.00,0.0,WeatherDisplay:10.37,2013-02-05 09:38:00,
2013-02-05 04:42:00,39.8,27.4,30.03,South,187,0.1,2.3,61,0.00,,OVC,0.00,0.0,WeatherDisplay:10.37,2013-02-05 09:42:00,
2013-02-05 04:43:00,39.8,27.0,30.03,South,187,3.4,4.0,60,0.00,,OVC,0.00,0.0,WeatherDisplay:10.37,2013-02-05 09:43:00,
2013-02-05 04:44:00,39.8,27.0,30.03,South,187,3.0,3.5,60,0.00,,OVC,0.00,0.0,WeatherDisplay:10.37,2013-02-05 09:44:00,
2013-02-05 04:47:00,39.8,27.0,30.03,South,187,0.0,0.0,60,0.00,,OVC,0.00,0.0,WeatherDisplay:10.37,2013-02-05 09:47:00,
2013-02-05 04:49:00,39.8,27.0,30.03,South,187,1.5,3.5,60,0.00,,OVC,0.00,0.0,WeatherDisplay:10.37,2013-02-05 09:49:00,
2013-02-05 04:50:00,39.6,26.8,30.03,South,187,0.6,3.5,60,0.00,,OVC,0.00,0.0,WeatherDisplay:10.37,2013-02-05 09:50:00,
2013-02-05 04:52:00,39.6,27.2,30.03,South,187,0.0,0.0,61,0.00,,OVC,0.00,0.0,WeatherDisplay:10.37,2013-02-05 09:52:00,
2013-02-05 04:54:00,39.5,27.2,30.03,South,187,0.0,0.0,61,0.00,,OVC,0.00,0.0,WeatherDisplay:10.37,2013-02-05 09:54:00,
2013-02-05 04:57:00,39.3,27.0,30.03,South,187,0.0,0.0,61,0.00,,OVC,0.00,0.0,WeatherDisplay:10.37,2013-02-05 09:57:00,
2013-02-05 04:59:00,39.2,27.3,30.03,South,187,0.0,0.0,62,0.00,,OVC,0.00,0.0,WeatherDisplay:10.37,2013-02-05 09:59:00,
2013-02-05 05:01:00,39.1,27.2,30.03,South,187,0.0,0.0,62,0.00,,OVC,0.00,0.0,WeatherDisplay:10.37,2013-02-05 10:01:00,
2013-02-05 05:02:00,39.1,27.2,30.03,South,187,0.0,0.0,62,0.00,,OVC,0.00,0.0,WeatherDisplay:10.37,2013-02-05 10:02:00,
2013-02-05 05:06:00,38.8,26.9,30.04,South,187,0.0,0.0,62,0.00,,OVC,0.00,0.0,WeatherDisplay:10.37,2013-02-05 10:06:00,
2013-02-05 05:07:00,38.8,26.9,30.04,South,187,0.0,0.0,62,0.00,,OVC,0.00,0.0,WeatherDisplay:10.37,2013-02-05 10:07:00,
2013-02-05 05:09:00,38.6,26.7,30.04,South,187,0.0,0.0,62,0.00,,OVC,0.00,0.0,WeatherDisplay:10.37,2013-02-05 10:09:00,
2013-02-05 05:10:00,38.6,26.7,30.04,South,187,0.0,0.0,62,0.00,,OVC,0.00,0.0,WeatherDisplay:10.37,2013-02-05 10:10:00,
2013-02-05 05:13:00,38.6,26.7,30.04,South,187,0.0,0.0,62,0.00,,OVC,0.00,0.0,WeatherDisplay:10.37,2013-02-05 10:13:00,
2013-02-05 05:15:00,38.8,26.9,30.04,South,187,0.0,0.0,62,0.00,,OVC,0.00,0.0,WeatherDisplay:10.37,2013-02-05 10:15:00,
2013-02-05 05:16:00,38.8,26.9,30.04,South,187,0.0,0.0,62,0.00,,OVC,0.00,0.0,WeatherDisplay:10.37,2013-02-05 10:16:00,
2013-02-05 05:19:00,38.6,26.7,30.04,South,187,0.0,0.0,62,0.00,,OVC,0.00,0.0,WeatherDisplay:10.37,2013-02-05 10:19:00,
2013-02-05 05:21:00,38.3,26.8,30.04,South,187,0.0,0.0,63,0.00,,OVC,0.00,0.0,WeatherDisplay:10.37,2013-02-05 10:21:00,
2013-02-05 05:22:00,38.0,26.9,30.04,South,187,0.0,0.0,64,0.00,,OVC,0.00,0.0,WeatherDisplay:10.37,2013-02-05 10:22:00,
2013-02-05 05:26:00,37.5,26.8,30.04,South,187,0.0,0.0,65,0.00,,OVC,0.00,0.0,WeatherDisplay:10.37,2013-02-05 10:26:00,
2013-02-05 05:27:00,37.3,27.0,30.04,South,187,0.0,0.0,66,0.00,,OVC,0.00,0.0,WeatherDisplay:10.37,2013-02-05 10:27:00,
2013-02-05 05:29:00,37.2,26.9,30.04,South,187,0.0,0.0,66,0.00,,OVC,0.00,0.0,WeatherDisplay:10.37,2013-02-05 10:29:00,
2013-02-05 05:32:00,37.3,27.0,30.04,South,187,0.0,0.0,66,0.00,,OVC,0.00,0.0,WeatherDisplay:10.37,2013-02-05 10:32:00,
2013-02-05 05:33:00,37.3,27.0,30.05,South,187,0.0,0.0,66,0.00,,OVC,0.00,0.0,WeatherDisplay:10.37,2013-02-05 10:33:00,
2013-02-05 05:38:00,37.0,26.7,30.05,South,187,1.1,3.5,66,0.00,,OVC,0.00,0.0,WeatherDisplay:10.37,2013-02-05 10:38:00,
2013-02-05 05:39:00,36.9,27.0,30.05,South,187,3.1,4.0,67,0.00,,OVC,0.00,0.0,WeatherDisplay:10.37,2013-02-05 10:39:00,
2013-02-05 05:40:00,36.8,26.9,30.05,South,187,3.9,4.0,67,0.00,,OVC,0.00,0.0,WeatherDisplay:10.37,2013-02-05 10:40:00,
2013-02-05 05:45:00,35.9,27.1,30.05,South,187,3.9,4.0,70,0.00,,OVC,0.00,0.0,WeatherDisplay:10.37,2013-02-05 10:45:00,
2013-02-05 05:46:00,35.8,27.0,30.05,South,187,3.1,3.5,70,0.00,,OVC,0.00,0.0,WeatherDisplay:10.37,2013-02-05 10:46:00,
2013-02-05 05:49:00,35.9,27.4,30.05,South,187,3.0,3.5,71,0.00,,OVC,0.00,0.0,WeatherDisplay:10.37,2013-02-05 10:49:00,
2013-02-05 05:50:00,35.9,27.4,30.05,South,187,2.9,3.5,71,0.00,,OVC,0.00,0.0,WeatherDisplay:10.37,2013-02-05 10:50:00,
2013-02-05 05:51:00,36.0,27.2,30.05,South,187,1.5,3.5,70,0.00,,OVC,0.00,0.0,WeatherDisplay:10.37,2013-02-05 10:51:00,
2013-02-05 05:54:00,35.9,27.1,30.05,South,187,0.0,0.0,70,0.00,,OVC,0.00,0.0,WeatherDisplay:10.37,2013-02-05 10:54:00,
2013-02-05 05:55:00,35.9,27.4,30.05,South,187,0.0,0.0,71,0.00,,OVC,0.00,0.0,WeatherDisplay:10.37,2013-02-05 10:55:00,
2013-02-05 05:57:00,35.8,27.3,30.05,South,187,0.0,0.0,71,0.00,,OVC,0.00,0.0,WeatherDisplay:10.37,2013-02-05 10:57:00,
2013-02-05 05:58:00,35.8,27.3,30.05,South,187,0.0,0.0,71,0.00,,OVC,0.00,0.0,WeatherDisplay:10.37,2013-02-05 10:58:00,
2013-02-05 06:01:00,36.0,27.2,30.05,South,187,0.0,0.0,70,0.00,,OVC,0.00,0.0,WeatherDisplay:10.37,2013-02-05 11:01:00,
2013-02-05 06:02:00,36.0,27.2,30.05,South,187,0.0,0.0,70,0.00,,OVC,0.00,0.0,WeatherDisplay:10.37,2013-02-05 11:02:00,
2013-02-05 06:03:00,35.9,27.1,30.05,South,187,0.0,0.0,70,0.00,,OVC,0.00,0.0,WeatherDisplay:10.37,2013-02-05 11:03:00,
2013-02-05 06:04:00,35.9,27.4,30.05,South,187,0.0,0.0,71,0.00,,OVC,0.00,0.0,WeatherDisplay:10.37,2013-02-05 11:04:00,
2013-02-05 06:09:00,35.6,27.1,30.05,South,187,0.0,0.0,71,0.00,,OVC,0.00,0.0,WeatherDisplay:10.37,2013-02-05 11:09:00,
2013-02-05 06:10:00,35.6,27.1,30.05,South,187,0.0,0.0,71,0.00,,OVC,0.00,0.0,WeatherDisplay:10.37,2013-02-05 11:10:00,
2013-02-05 06:12:00,35.6,27.1,30.05,South,187,0.0,0.0,71,0.00,,OVC,0.00,0.0,WeatherDisplay:10.37,2013-02-05 11:12:00,
2013-02-05 06:15:00,35.9,27.4,30.05,South,187,0.0,0.0,71,0.00,,OVC,0.00,0.0,WeatherDisplay:10.37,2013-02-05 11:15:00,
2013-02-05 06:17:00,36.2,27.4,30.05,South,187,0.0,0.0,70,0.00,,OVC,0.00,0.0,WeatherDisplay:10.37,2013-02-05 11:17:00,
2013-02-05 06:21:00,36.2,27.4,30.06,South,187,0.0,0.0,70,0.00,,OVC,0.00,0.0,WeatherDisplay:10.37,2013-02-05 11:21:00,
2013-02-05 06:22:00,36.2,27.4,30.06,South,187,0.0,0.0,70,0.00,,OVC,0.00,0.0,WeatherDisplay:10.37,2013-02-05 11:22:00,
2013-02-05 06:23:00,36.2,27.4,30.06,South,187,0.0,0.0,70,0.00,,OVC,0.00,0.0,WeatherDisplay:10.37,2013-02-05 11:23:00,
2013-02-05 06:28:00,35.6,27.1,30.06,South,187,2.4,4.0,71,0.00,,OVC,0.00,0.0,WeatherDisplay:10.37,2013-02-05 11:28:00,
2013-02-05 06:29:00,35.5,27.4,30.06,South,187,3.8,4.0,72,0.00,,OVC,0.00,0.0,WeatherDisplay:10.37,2013-02-05 11:29:00,
2013-02-05 06:34:00,35.8,28.0,30.06,South,187,5.2,6.0,73,0.00,,OVC,0.00,0.0,WeatherDisplay:10.37,2013-02-05 11:34:00,
2013-02-05 06:36:00,36.2,27.7,30.06,South,189,4.9,5.8,71,0.00,,OVC,0.00,0.0,WeatherDisplay:10.37,2013-02-05 11:36:00,
2013-02-05 06:37:00,36.3,27.8,30.06,SSW,192,5.3,6.0,71,0.00,,OVC,0.00,0.0,WeatherDisplay:10.37,2013-02-05 11:37:00,
2013-02-05 06:39:00,36.8,27.6,30.06,SSW,192,5.2,5.8,69,0.00,,OVC,0.00,0.0,WeatherDisplay:10.37,2013-02-05 11:39:00,
2013-02-05 06:40:00,36.8,27.6,30.06,SSW,192,4.7,5.8,69,0.00,,OVC,0.00,0.0,WeatherDisplay:10.37,2013-02-05 11:40:00,
2013-02-05 06:42:00,36.6,27.4,30.06,SSW,192,4.7,5.0,69,0.00,,OVC,0.00,0.0,WeatherDisplay:10.37,2013-02-05 11:42:00,
2013-02-05 06:44:00,36.3,27.1,30.06,SSW,192,3.8,5.8,69,0.00,,OVC,0.00,0.0,WeatherDisplay:10.37,2013-02-05 11:44:00,
2013-02-05 06:45:00,36.3,27.4,30.06,SSW,192,3.0,4.6,70,0.00,,OVC,0.00,0.0,WeatherDisplay:10.37,2013-02-05 11:45:00,
2013-02-05 06:47:00,36.3,27.4,30.06,SSW,192,2.7,4.0,70,0.00,,OVC,0.00,0.0,WeatherDisplay:10.37,2013-02-05 11:47:00,
2013-02-05 06:49:00,36.2,27.7,30.06,SSW,192,0.0,0.0,71,0.00,,OVC,0.00,0.0,WeatherDisplay:10.37,2013-02-05 11:49:00,
2013-02-05 06:51:00,36.0,27.5,30.06,SSW,192,0.0,0.0,71,0.00,,OVC,0.00,0.0,WeatherDisplay:10.37,2013-02-05 11:51:00,
2013-02-05 06:54:00,35.9,27.7,30.06,SSW,192,0.0,0.0,72,0.00,,OVC,0.00,0.0,WeatherDisplay:10.37,2013-02-05 11:54:00,
2013-02-05 06:55:00,36.0,27.5,30.06,SSW,192,0.0,0.0,71,0.00,,OVC,0.00,0.0,WeatherDisplay:10.37,2013-02-05 11:55:00,
2013-02-05 06:56:00,36.2,27.7,30.06,SSW,192,2.1,3.5,71,0.00,,OVC,0.00,0.0,WeatherDisplay:10.37,2013-02-05 11:56:00,
2013-02-05 06:57:00,36.2,27.4,30.06,SSW,192,2.3,3.5,70,0.00,,OVC,0.00,0.0,WeatherDisplay:10.37,2013-02-05 11:57:00,
2013-02-05 07:00:00,36.2,27.4,30.06,SSW,192,1.0,3.0,70,0.00,,OVC,0.00,0.0,WeatherDisplay:10.37,2013-02-05 12:00:00,
2013-02-05 07:05:00,35.6,27.5,30.06,SSW,192,3.2,4.6,72,0.00,OVC,,0.00,0.0,WeatherDisplay:10.37,2013-02-05 12:05:00,
2013-02-05 07:07:00,35.8,27.7,30.06,SSW,192,2.4,3.5,72,0.00,OVC,,0.00,0.0,WeatherDisplay:10.37,2013-02-05 12:07:00,
2013-02-05 07:10:00,35.9,27.7,30.06,SSW,192,0.0,0.0,72,0.00,OVC,,0.00,0.0,WeatherDisplay:10.37,2013-02-05 12:10:00,
2013-02-05 07:12:00,35.9,27.7,30.06,SSW,192,0.0,0.0,72,0.00,OVC,,0.00,0.0,WeatherDisplay:10.37,2013-02-05 12:12:00,
2013-02-05 07:17:00,36.0,27.8,30.06,SSW,192,2.9,4.6,72,0.00,OVC,,0.00,0.0,WeatherDisplay:10.37,2013-02-05 12:17:00,
2013-02-05 07:18:00,35.8,28.0,30.06,SSW,192,2.1,4.0,73,0.00,OVC,,0.00,0.0,WeatherDisplay:10.37,2013-02-05 12:18:00,
2013-02-05 07:20:00,35.6,27.8,30.06,SSW,192,3.0,4.0,73,0.00,OVC,,0.00,0.0,WeatherDisplay:10.37,2013-02-05 12:20:00,
2013-02-05 07:22:00,35.3,27.8,30.06,SSW,192,4.8,5.8,74,0.00,OVC,,0.00,0.0,WeatherDisplay:10.37,2013-02-05 12:22:00,
2013-02-05 07:23:00,35.2,28.1,30.06,SSW,192,5.9,7.0,75,0.00,OVC,,0.00,0.0,WeatherDisplay:10.37,2013-02-05 12:23:00,
2013-02-05 07:26:00,35.5,28.4,30.06,SSW,192,4.8,5.8,75,0.00,OVC,,0.00,5.0,WeatherDisplay:10.37,2013-02-05 12:26:00,
2013-02-05 07:27:00,35.6,28.1,30.06,SSW,192,4.8,6.9,74,0.00,OVC,,0.00,5.0,WeatherDisplay:10.37,2013-02-05 12:27:00,
2013-02-05 07:28:00,35.8,28.3,30.06,SSW,192,4.7,6.9,74,0.00,OVC,,0.00,5.0,WeatherDisplay:10.37,2013-02-05 12:28:00,
2013-02-05 07:29:00,35.9,28.4,30.06,South,191,5.7,6.9,74,0.00,OVC,,0.00,5.0,WeatherDisplay:10.37,2013-02-05 12:29:00,
2013-02-05 07:31:00,36.2,28.7,30.06,South,190,6.5,9.2,74,0.00,OVC,,0.00,9.0,WeatherDisplay:10.37,2013-02-05 12:31:00,
2013-02-05 07:33:00,36.5,28.7,30.06,SSW,192,6.1,9.2,73,0.00,OVC,,0.00,9.0,WeatherDisplay:10.37,2013-02-05 12:33:00,
2013-02-05 07:36:00,36.9,28.7,30.06,SSW,192,3.4,4.6,72,0.00,OVC,,0.00,11.0,WeatherDisplay:10.37,2013-02-05 12:36:00,
2013-02-05 07:38:00,36.8,28.6,30.06,SSW,192,3.1,3.5,72,0.00,OVC,,0.00,16.0,WeatherDisplay:10.37,2013-02-05 12:38:00,
2013-02-05 07:41:00,36.6,28.4,30.06,SSW,192,3.1,4.0,72,0.00,OVC,,0.00,23.0,WeatherDisplay:10.37,2013-02-05 12:41:00,
2013-02-05 07:44:00,36.8,28.3,30.06,SSW,193,4.4,6.0,71,0.00,OVC,,0.00,19.0,WeatherDisplay:10.37,2013-02-05 12:44:00,
2013-02-05 07:46:00,37.0,28.1,30.06,SSW,193,3.7,4.6,70,0.00,OVC,,0.00,21.0,WeatherDisplay:10.37,2013-02-05 12:46:00,
2013-02-05 07:49:00,37.2,28.3,30.08,SSW,193,3.5,4.0,70,0.00,OVC,,0.00,19.0,WeatherDisplay:10.37,2013-02-05 12:49:00,
2013-02-05 07:50:00,37.2,28.0,30.08,SSW,193,3.7,3.7,69,0.00,OVC,,0.00,19.0,WeatherDisplay:10.37,2013-02-05 12:50:00,
2013-02-05 07:54:00,37.5,28.2,30.08,SSW,193,3.6,3.6,69,0.00,OVC,,0.00,25.0,WeatherDisplay:10.37,2013-02-05 12:54:00,
2013-02-05 07:55:00,37.6,28.0,30.08,SSW,192,4.1,4.6,68,0.00,OVC,,0.00,32.0,WeatherDisplay:10.37,2013-02-05 12:55:00,
2013-02-05 07:59:00,37.6,28.0,30.08,SSW,193,3.4,3.5,68,0.00,OVC,,0.00,37.0,WeatherDisplay:10.37,2013-02-05 12:59:00,
2013-02-05 08:00:00,37.6,28.0,30.08,SSW,193,3.1,4.0,68,0.00,OVC,,0.00,37.0,WeatherDisplay:10.37,2013-02-05 13:00:00,
2013-02-05 08:01:00,37.6,28.0,30.08,SSW,193,3.6,5.0,68,0.00,OVC,,0.00,37.0,WeatherDisplay:10.37,2013-02-05 13:01:00,
2013-02-05 08:04:00,37.6,28.0,30.07,SSW,193,4.4,5.0,68,0.00,OVC,,0.00,40.0,WeatherDisplay:10.37,2013-02-05 13:04:00,
2013-02-05 08:06:00,37.8,28.2,30.07,SSW,193,3.6,3.6,68,0.00,OVC,,0.00,44.0,WeatherDisplay:10.37,2013-02-05 13:06:00,
2013-02-05 08:07:00,37.6,28.0,30.07,SSW,193,2.6,3.5,68,0.00,OVC,,0.00,51.0,WeatherDisplay:10.37,2013-02-05 13:07:00,
2013-02-05 08:11:00,37.8,28.5,30.07,SSW,192,2.6,3.5,69,0.00,OVC,,0.00,141.0,WeatherDisplay:10.37,2013-02-05 13:11:00,
2013-02-05 08:12:00,37.9,29.0,30.07,SSW,193,4.1,5.8,70,0.00,OVC,,0.00,97.0,WeatherDisplay:10.37,2013-02-05 13:12:00,
2013-02-05 08:13:00,38.0,29.1,30.07,SSW,192,3.5,5.8,70,0.00,OVC,,0.00,97.0,WeatherDisplay:10.37,2013-02-05 13:13:00,
2013-02-05 08:14:00,38.2,29.3,30.07,SSW,193,3.6,5.0,70,0.00,OVC,,0.00,53.0,WeatherDisplay:10.37,2013-02-05 13:14:00,
2013-02-05 08:17:00,38.3,29.0,30.07,SSW,192,4.3,5.8,69,0.00,OVC,,0.00,185.0,WeatherDisplay:10.37,2013-02-05 13:17:00,
2013-02-05 08:18:00,38.5,29.2,30.07,SSW,192,4.6,5.8,69,0.00,OVC,,0.00,195.0,WeatherDisplay:10.37,2013-02-05 13:18:00,
2013-02-05 08:20:00,38.9,29.6,30.07,SSW,192,4.4,5.8,69,0.00,OVC,,0.00,220.0,WeatherDisplay:10.37,2013-02-05 13:20:00,
2013-02-05 08:21:00,39.2,29.9,30.07,SSW,192,4.4,4.6,69,0.00,OVC,,0.00,223.0,WeatherDisplay:10.37,2013-02-05 13:21:00,
2013-02-05 08:23:00,39.5,29.4,30.07,SSW,192,4.1,5.8,67,0.00,OVC,,0.00,225.0,WeatherDisplay:10.37,2013-02-05 13:23:00,
2013-02-05 08:24:00,39.8,30.1,30.07,SSW,192,4.4,5.8,68,0.00,OVC,,0.00,225.0,WeatherDisplay:10.37,2013-02-05 13:24:00,
2013-02-05 08:28:00,40.3,29.5,30.07,SSW,195,7.1,9.2,65,0.00,OVC,,0.00,221.0,WeatherDisplay:10.37,2013-02-05 13:28:00,
2013-02-05 08:29:00,40.5,30.0,30.07,SSW,195,4.9,10.0,66,0.00,OVC,,0.00,183.0,WeatherDisplay:10.37,2013-02-05 13:29:00,
2013-02-05 08:30:00,40.8,29.9,30.07,SSW,199,6.1,10.4,65,0.00,OVC,,0.00,199.0,WeatherDisplay:10.37,2013-02-05 13:30:00,
2013-02-05 08:33:00,40.9,29.7,30.08,SSW,207,6.0,8.1,64,0.00,OVC,,0.00,65.0,WeatherDisplay:10.37,2013-02-05 13:33:00,
2013-02-05 08:36:00,40.9,29.3,30.08,SSW,207,4.6,7.0,63,0.00,OVC,,0.00,60.0,WeatherDisplay:10.37,2013-02-05 13:36:00,
2013-02-05 08:38:00,40.9,29.3,30.08,SSW,208,5.8,11.5,63,0.00,OVC,,0.00,47.0,WeatherDisplay:10.37,2013-02-05 13:38:00,
2013-02-05 08:41:00,40.9,28.9,30.08,SW,219,6.6,8.1,62,0.00,OVC,,0.00,42.0,WeatherDisplay:10.37,2013-02-05 13:41:00,
2013-02-05 08:42:00,40.9,28.9,30.08,SW,219,6.6,9.2,62,0.00,OVC,,0.00,42.0,WeatherDisplay:10.37,2013-02-05 13:42:00,
2013-02-05 08:46:00,41.1,29.1,30.08,SW,217,7.2,10.4,62,0.00,OVC,,0.00,40.0,WeatherDisplay:10.37,2013-02-05 13:46:00,
2013-02-05 08:48:00,41.1,29.1,30.08,SW,217,5.9,10.4,62,0.00,OVC,,0.00,42.0,WeatherDisplay:10.37,2013-02-05 13:48:00,
2013-02-05 08:52:00,41.1,29.1,30.08,SW,223,8.7,11.5,62,0.00,OVC,,0.00,46.0,WeatherDisplay:10.37,2013-02-05 13:52:00,
2013-02-05 08:53:00,41.1,29.1,30.08,SSW,198,8.2,11.5,62,0.00,OVC,,0.00,47.0,WeatherDisplay:10.37,2013-02-05 13:53:00,
2013-02-05 08:55:00,41.1,29.1,30.08,SW,217,6.9,11.5,62,0.00,OVC,,0.00,53.0,WeatherDisplay:10.37,2013-02-05 13:55:00,
2013-02-05 08:57:00,41.1,29.1,30.08,SW,218,6.9,9.2,62,0.00,OVC,,0.00,58.0,WeatherDisplay:10.37,2013-02-05 13:57:00,
2013-02-05 09:00:00,41.1,29.1,30.08,SSW,209,9.1,11.5,62,0.00,OVC,,0.00,74.0,WeatherDisplay:10.37,2013-02-05 14:00:00,
2013-02-05 09:02:00,41.2,29.2,30.08,SW,221,10.2,11.5,62,0.00,OVC,,0.00,81.0,WeatherDisplay:10.37,2013-02-05 14:02:00,
2013-02-05 09:03:00,41.2,29.2,30.08,SW,225,7.0,11.5,62,0.00,OVC,,0.00,83.0,WeatherDisplay:10.37,2013-02-05 14:03:00,
2013-02-05 09:05:00,41.2,29.2,30.08,SW,226,7.9,11.5,62,0.00,OVC,,0.00,83.0,WeatherDisplay:10.37,2013-02-05 14:05:00,
2013-02-05 09:07:00,41.2,29.2,30.08,SW,228,6.8,11.5,62,0.00,OVC,,0.00,86.0,WeatherDisplay:10.37,2013-02-05 14:07:00,
2013-02-05 09:09:00,41.3,29.3,30.08,SW,225,6.6,7.0,62,0.00,OVC,,0.00,81.0,WeatherDisplay:10.37,2013-02-05 14:09:00,
2013-02-05 09:10:00,41.3,29.3,30.08,SW,224,7.4,8.0,62,0.00,OVC,,0.00,81.0,WeatherDisplay:10.37,2013-02-05 14:10:00,
2013-02-05 09:12:00,41.3,29.3,30.08,SW,228,6.5,11.5,62,0.00,OVC,,0.00,74.0,WeatherDisplay:10.37,2013-02-05 14:12:00,
2013-02-05 09:15:00,41.3,29.3,30.08,SW,232,6.3,10.4,62,0.00,OVC,,0.00,72.0,WeatherDisplay:10.37,2013-02-05 14:15:00,
2013-02-05 09:16:00,41.3,29.3,30.08,SW,232,6.0,10.4,62,0.00,OVC,,0.00,72.0,WeatherDisplay:10.37,2013-02-05 14:16:00,
2013-02-05 09:18:00,41.3,28.9,30.08,SW,228,8.2,11.5,61,0.00,OVC,,0.00,74.0,WeatherDisplay:10.37,2013-02-05 14:18:00,
2013-02-05 09:21:00,41.3,28.9,30.08,SW,229,5.2,10.4,61,0.00,OVC,,0.00,84.0,WeatherDisplay:10.37,2013-02-05 14:21:00,
2013-02-05 09:23:00,41.3,29.3,30.08,SW,229,3.4,4.6,62,0.00,OVC,,0.00,98.0,WeatherDisplay:10.37,2013-02-05 14:23:00,
2013-02-05 09:24:00,41.3,29.3,30.08,SW,229,3.7,4.6,62,0.00,OVC,,0.00,98.0,WeatherDisplay:10.37,2013-02-05 14:24:00,
2013-02-05 09:26:00,41.5,29.4,30.08,SW,232,5.8,8.1,62,0.00,OVC,,0.00,116.0,WeatherDisplay:10.37,2013-02-05 14:26:00,
2013-02-05 09:28:00,41.5,29.4,30.08,SW,231,5.2,7.0,62,0.00,OVC,,0.00,120.0,WeatherDisplay:10.37,2013-02-05 14:28:00,
2013-02-05 09:30:00,41.5,29.0,30.08,SW,223,4.9,6.9,61,0.00,OVC,,0.00,120.0,WeatherDisplay:10.37,2013-02-05 14:30:00,
2013-02-05 09:31:00,41.6,29.1,30.08,SW,216,6.3,6.9,61,0.00,OVC,,0.00,142.0,WeatherDisplay:10.37,2013-02-05 14:31:00,
2013-02-05 09:33:00,41.8,29.7,30.08,SSW,209,6.8,9.2,62,0.00,OVC,,0.00,121.0,WeatherDisplay:10.37,2013-02-05 14:33:00,
2013-02-05 09:34:00,41.8,29.7,30.08,SSW,207,7.7,12.0,62,0.00,OVC,,0.00,105.0,WeatherDisplay:10.37,2013-02-05 14:34:00,
2013-02-05 09:35:00,41.8,29.3,30.08,SSW,199,10.8,13.8,61,0.00,OVC,,0.00,93.0,WeatherDisplay:10.37,2013-02-05 14:35:00,
2013-02-05 09:39:00,41.9,29.4,30.08,SSW,202,5.8,6.9,61,0.00,OVC,,0.00,67.0,WeatherDisplay:10.37,2013-02-05 14:39:00,
2013-02-05 09:40:00,41.9,29.4,30.08,SSW,200,6.1,10.0,61,0.00,OVC,,0.00,67.0,WeatherDisplay:10.37,2013-02-05 14:40:00,
2013-02-05 09:44:00,41.9,29.4,30.08,SSW,209,6.5,9.2,61,0.00,OVC,,0.00,60.0,WeatherDisplay:10.37,2013-02-05 14:44:00,
2013-02-05 09:45:00,41.9,29.4,30.08,SSW,207,7.0,14.0,61,0.00,OVC,OVC,0.00,60.0,WeatherDisplay:10.37,2013-02-05 14:45:00,
2013-02-05 09:46:00,41.9,29.4,30.08,SSW,211,7.2,10.4,61,0.00,OVC,,0.00,62.0,WeatherDisplay:10.37,2013-02-05 14:46:00,
2013-02-05 09:48:00,41.9,29.4,30.08,SSW,209,5.9,11.5,61,0.00,OVC,,0.00,63.0,WeatherDisplay:10.37,2013-02-05 14:48:00,
2013-02-05 09:50:00,42.1,29.6,30.08,SSW,209,5.5,6.9,61,0.00,OVC,,0.00,69.0,WeatherDisplay:10.37,2013-02-05 14:50:00,
2013-02-05 09:51:00,42.1,29.6,30.08,SSW,209,5.0,6.9,61,0.00,OVC,,0.00,69.0,WeatherDisplay:10.37,2013-02-05 14:51:00,
2013-02-05 09:54:00,42.1,29.6,30.08,SSW,209,5.1,6.9,61,0.00,OVC,,0.00,86.0,WeatherDisplay:10.37,2013-02-05 14:54:00,
2013-02-05 09:57:00,42.2,29.7,30.08,SW,219,6.0,8.1,61,0.00,OVC,,0.00,93.0,WeatherDisplay:10.37,2013-02-05 14:57:00,
2013-02-05 10:00:00,42.2,29.3,30.08,SW,216,7.0,12.0,60,0.00,OVC,OVC,0.00,105.0,WeatherDisplay:10.37,2013-02-05 15:00:00,
2013-02-05 10:05:00,42.3,29.8,30.08,WSW,238,4.8,6.0,61,0.00,OVC,,0.00,107.0,WeatherDisplay:10.37,2013-02-05 15:05:00,
2013-02-05 10:07:00,42.5,30.0,30.08,WSW,238,3.7,5.8,61,0.00,OVC,,0.00,104.0,WeatherDisplay:10.37,2013-02-05 15:07:00,
2013-02-05 10:09:00,42.5,30.0,30.08,WSW,238,4.8,5.8,61,0.00,OVC,,0.00,111.0,WeatherDisplay:10.37,2013-02-05 15:09:00,
2013-02-05 10:11:00,42.6,30.5,30.08,WSW,239,4.5,6.0,62,0.00,OVC,,0.00,160.0,WeatherDisplay:10.37,2013-02-05 15:11:00,
2013-02-05 10:14:00,42.8,30.7,30.08,WSW,239,4.4,4.6,62,0.00,OVC,,0.00,165.0,WeatherDisplay:10.37,2013-02-05 15:14:00,
2013-02-05 10:15:00,42.9,30.0,30.08,SW,236,4.3,8.0,60,0.00,OVC,,0.00,160.0,WeatherDisplay:10.37,2013-02-05 15:15:00,
2013-02-05 10:18:00,42.8,29.5,30.08,SW,227,7.3,11.5,59,0.00,OVC,,0.00,155.0,WeatherDisplay:10.37,2013-02-05 15:18:00,
2013-02-05 10:19:00,42.8,29.9,30.08,SW,229,7.1,9.2,60,0.00,OVC,,0.00,172.0,WeatherDisplay:10.37,2013-02-05 15:19:00,
2013-02-05 10:23:00,43.1,29.7,30.08,SW,229,8.8,11.5,59,0.00,OVC,,0.00,195.0,WeatherDisplay:10.37,2013-02-05 15:23:00,
2013-02-05 10:24:00,43.1,30.1,30.08,SW,227,8.8,11.5,60,0.00,OVC,,0.00,162.0,WeatherDisplay:10.37,2013-02-05 15:24:00,
2013-02-05 10:25:00,43.1,30.1,30.08,SW,215,10.1,11.5,60,0.00,OVC,,0.00,153.0,WeatherDisplay:10.37,2013-02-05 15:25:00,
2013-02-05 10:29:00,43.1,29.7,30.08,SW,215,8.5,11.5,59,0.00,OVC,,0.00,218.0,WeatherDisplay:10.37,2013-02-05 15:29:00,
2013-02-05 10:30:00,43.2,29.8,30.08,SW,219,8.0,13.0,59,0.00,OVC,OVC,0.00,318.0,WeatherDisplay:10.37,2013-02-05 15:30:00,
2013-02-05 10:32:00,43.3,29.9,30.08,SW,222,5.8,8.1,59,0.00,OVC,,0.00,262.0,WeatherDisplay:10.37,2013-02-05 15:32:00,
2013-02-05 10:34:00,43.6,30.2,30.08,SW,225,5.5,7.0,59,0.00,OVC,,0.00,265.0,WeatherDisplay:10.37,2013-02-05 15:34:00,
2013-02-05 10:35:00,43.6,29.8,30.08,SW,226,5.1,7.0,58,0.00,OVC,,0.00,301.0,WeatherDisplay:10.37,2013-02-05 15:35:00,
2013-02-05 10:37:00,43.8,30.4,30.08,SW,221,9.5,10.4,59,0.00,OVC,,0.00,264.0,WeatherDisplay:10.37,2013-02-05 15:37:00,
2013-02-05 10:39:00,43.8,30.0,30.08,SW,219,8.7,11.5,58,0.00,OVC,,0.00,236.0,WeatherDisplay:10.37,2013-02-05 15:39:00,
2013-02-05 10:41:00,43.9,30.1,30.08,SW,219,5.6,10.4,58,0.00,OVC,,0.00,188.0,WeatherDisplay:10.37,2013-02-05 15:41:00,
2013-02-05 10:42:00,43.9,30.1,30.08,SW,219,5.2,5.8,58,0.00,OVC,,0.00,169.0,WeatherDisplay:10.37,2013-02-05 15:42:00,
2013-02-05 10:43:00,43.9,30.1,30.08,WSW,240,6.9,9.0,58,0.00,OVC,,0.00,153.0,WeatherDisplay:10.37,2013-02-05 15:43:00,
2013-02-05 10:44:00,43.9,30.1,30.08,WSW,240,7.9,10.4,58,0.00,OVC,,0.00,153.0,WeatherDisplay:10.37,2013-02-05 15:44:00,
2013-02-05 10:47:00,43.9,30.1,30.08,SW,227,5.2,8.0,58,0.00,OVC,,0.00,178.0,WeatherDisplay:10.37,2013-02-05 15:47:00,
2013-02-05 10:48:00,44.1,30.3,30.08,SW,218,6.3,12.0,58,0.00,OVC,,0.00,178.0,WeatherDisplay:10.37,2013-02-05 15:48:00,
2013-02-05 10:49:00,44.1,30.3,30.08,SW,217,11.8,12.7,58,0.00,OVC,,0.00,174.0,WeatherDisplay:10.37,2013-02-05 15:49:00,
2013-02-05 10:50:00,44.1,30.3,30.08,SSW,213,11.6,12.7,58,0.00,OVC,,0.00,179.0,WeatherDisplay:10.37,2013-02-05 15:50:00,
2013-02-05 10:53:00,44.1,29.8,30.08,SW,219,10.8,12.7,57,0.00,OVC,,0.00,192.0,WeatherDisplay:10.37,2013-02-05 15:53:00,
2013-02-05 10:54:00,44.2,29.9,30.08,SW,227,11.5,12.7,57,0.00,OVC,,0.00,192.0,WeatherDisplay:10.37,2013-02-05 15:54:00,
2013-02-05 10:55:00,44.2,30.3,30.08,SW,227,11.9,12.7,58,0.00,OVC,,0.00,200.0,WeatherDisplay:10.37,2013-02-05 15:55:00,
2013-02-05 10:58:00,44.2,30.3,30.08,SW,226,8.5,11.5,58,0.00,OVC,,0.00,221.0,WeatherDisplay:10.37,2013-02-05 15:58:00,
2013-02-05 10:59:00,44.2,29.9,30.08,SW,234,7.8,11.5,57,0.00,OVC,,0.00,209.0,WeatherDisplay:10.37,2013-02-05 15:59:00,
2013-02-05 11:01:00,44.2,29.9,30.08,SW,215,6.7,10.4,57,0.00,OVC,,0.00,199.0,WeatherDisplay:10.37,2013-02-05 16:01:00,
2013-02-05 11:03:00,44.5,30.6,30.08,SW,223,8.4,10.4,58,0.00,OVC,,0.00,192.0,WeatherDisplay:10.37,2013-02-05 16:03:00,
2013-02-05 11:04:00,44.5,30.2,30.08,SSW,211,10.0,11.5,57,0.00,OVC,,0.00,192.0,WeatherDisplay:10.37,2013-02-05 16:04:00,
2013-02-05 11:07:00,44.6,30.7,30.08,SW,223,7.2,11.5,58,0.00,OVC,,0.00,167.0,WeatherDisplay:10.37,2013-02-05 16:07:00,
2013-02-05 11:09:00,44.6,30.3,30.08,SW,229,7.1,10.4,57,0.00,OVC,,0.00,139.0,WeatherDisplay:10.37,2013-02-05 16:09:00,
2013-02-05 11:11:00,44.5,30.2,30.08,SSW,210,6.2,10.4,57,0.00,OVC,,0.00,134.0,WeatherDisplay:10.37,2013-02-05 16:11:00,
2013-02-05 11:14:00,44.5,30.2,30.08,SSW,208,5.9,10.0,57,0.00,OVC,,0.00,181.0,WeatherDisplay:10.37,2013-02-05 16:14:00,
2013-02-05 11:15:00,44.5,30.2,30.08,SSW,203,9.7,11.0,57,0.00,OVC,,0.00,202.0,WeatherDisplay:10.37,2013-02-05 16:15:00,
2013-02-05 11:16:00,44.6,29.9,30.08,SSW,211,4.9,11.5,56,0.00,OVC,,0.00,188.0,WeatherDisplay:10.37,2013-02-05 16:16:00,
2013-02-05 11:17:00,44.6,30.3,30.08,SSW,211,6.0,9.2,57,0.00,OVC,,0.00,178.0,WeatherDisplay:10.37,2013-02-05 16:17:00,
2013-02-05 11:20:00,44.8,30.5,30.08,SW,232,7.2,8.1,57,0.00,OVC,,0.00,176.0,WeatherDisplay:10.37,2013-02-05 16:20:00,
2013-02-05 11:23:00,44.9,30.1,30.08,SW,227,6.6,9.2,56,0.00,OVC,,0.00,193.0,WeatherDisplay:10.37,2013-02-05 16:23:00,
2013-02-05 11:25:00,45.1,30.8,30.08,SW,222,7.4,10.4,57,0.00,OVC,,0.00,223.0,WeatherDisplay:10.37,2013-02-05 16:25:00,
2013-02-05 11:26:00,45.1,30.3,30.08,SW,222,7.0,9.2,56,0.00,OVC,,0.00,239.0,WeatherDisplay:10.37,2013-02-05 16:26:00,
2013-02-05 11:27:00,45.2,30.9,30.08,SW,222,6.0,6.9,57,0.00,OVC,,0.00,278.0,WeatherDisplay:10.37,2013-02-05 16:27:00,
2013-02-05 11:29:00,45.2,30.4,30.08,SW,227,9.4,11.5,56,0.00,OVC,,0.00,306.0,WeatherDisplay:10.37,2013-02-05 16:29:00,
2013-02-05 11:32:00,45.2,30.0,30.08,SW,231,6.3,10.4,55,0.00,OVC,,0.00,322.0,WeatherDisplay:10.37,2013-02-05 16:32:00,
2013-02-05 11:33:00,45.4,30.2,30.08,SW,232,7.5,10.4,55,0.00,OVC,,0.00,322.0,WeatherDisplay:10.37,2013-02-05 16:33:00,
2013-02-05 11:34:00,45.4,30.2,30.08,SW,234,7.7,10.4,55,0.00,OVC,,0.00,320.0,WeatherDisplay:10.37,2013-02-05 16:34:00,
2013-02-05 11:35:00,45.4,30.2,30.08,SW,234,5.5,9.2,55,0.00,OVC,,0.00,367.0,WeatherDisplay:10.37,2013-02-05 16:35:00,
2013-02-05 11:38:00,45.8,30.5,30.08,WSW,242,5.6,9.2,55,0.00,OVC,,0.00,682.0,WeatherDisplay:10.37,2013-02-05 16:38:00,
2013-02-05 11:39:00,45.8,30.5,30.08,WSW,242,5.0,9.2,55,0.00,OVC,,0.00,673.0,WeatherDisplay:10.37,2013-02-05 16:39:00,
2013-02-05 11:40:00,46.0,30.7,30.08,WSW,242,4.2,7.0,55,0.00,OVC,,0.00,679.0,WeatherDisplay:10.37,2013-02-05 16:40:00,
2013-02-05 11:44:00,46.4,30.2,30.08,SW,229,2.6,5.8,53,0.00,OVC,,0.00,603.0,WeatherDisplay:10.37,2013-02-05 16:44:00,
2013-02-05 11:45:00,46.7,30.9,30.08,SW,229,6.0,6.9,54,0.00,OVC,,0.00,636.0,WeatherDisplay:10.37,2013-02-05 16:45:00,
2013-02-05 11:46:00,46.8,30.6,30.08,SW,234,5.8,6.9,53,0.00,OVC,,0.00,636.0,WeatherDisplay:10.37,2013-02-05 16:46:00,
2013-02-05 11:49:00,47.6,31.3,30.06,SW,232,4.6,6.9,53,0.00,OVC,,0.00,650.0,WeatherDisplay:10.37,2013-02-05 16:49:00,
2013-02-05 11:50:00,47.9,31.6,30.06,SW,220,4.7,7.0,53,0.00,OVC,,0.00,650.0,WeatherDisplay:10.37,2013-02-05 16:50:00,
2013-02-05 11:52:00,48.0,30.7,30.06,SSW,210,6.5,8.1,51,0.00,OVC,,0.00,628.0,WeatherDisplay:10.37,2013-02-05 16:52:00,
2013-02-05 11:55:00,48.6,31.3,30.06,SSW,211,5.4,6.9,51,0.00,OVC,,0.00,619.0,WeatherDisplay:10.37,2013-02-05 16:55:00,
2013-02-05 11:56:00,48.6,30.8,30.06,SSW,211,5.2,6.9,50,0.00,OVC,,0.00,619.0,WeatherDisplay:10.37,2013-02-05 16:56:00,
2013-02-05 11:57:00,48.8,30.5,30.06,SSW,192,6.5,10.0,49,0.00,OVC,,0.00,624.0,WeatherDisplay:10.37,2013-02-05 16:57:00,
2013-02-05 12:00:00,49.2,30.8,30.06,SSW,198,8.0,12.0,49,0.00,OVC,OVC,0.00,635.0,WeatherDisplay:10.37,2013-02-05 17:00:00,
2013-02-05 12:01:00,49.4,30.5,30.06,SSW,200,5.9,10.4,48,0.00,OVC,,0.00,642.0,WeatherDisplay:10.37,2013-02-05 17:01:00,
2013-02-05 12:02:00,49.4,30.0,30.06,SSW,200,4.4,9.2,47,0.00,OVC,,0.00,656.0,WeatherDisplay:10.37,2013-02-05 17:02:00,
2013-02-05 12:07:00,49.8,29.8,30.05,SW,236,3.8,6.9,46,0.00,OVC,,0.00,726.0,WeatherDisplay:10.37,2013-02-05 17:07:00,
2013-02-05 12:08:00,49.8,29.8,30.05,SW,236,4.3,4.6,46,0.00,OVC,,0.00,668.0,WeatherDisplay:10.37,2013-02-05 17:08:00,
2013-02-05 12:10:00,49.6,30.2,30.05,West,273,7.4,9.0,47,0.00,OVC,,0.00,598.0,WeatherDisplay:10.37,2013-02-05 17:10:00,
2013-02-05 12:13:00,49.5,30.1,30.05,West,273,0.0,0.0,47,0.00,OVC,,0.00,271.0,WeatherDisplay:10.37,2013-02-05 17:13:00,
2013-02-05 12:14:00,49.6,30.2,30.05,West,273,0.0,0.0,47,0.00,OVC,,0.00,239.0,WeatherDisplay:10.37,2013-02-05 17:14:00,
2013-02-05 12:15:00,49.6,30.2,30.05,West,259,0.0,10.0,47,0.00,OVC,OVC,0.00,239.0,WeatherDisplay:10.37,2013-02-05 17:15:00,
2013-02-05 12:19:00,49.8,30.4,30.05,West,264,5.0,6.0,47,0.00,OVC,,0.00,213.0,WeatherDisplay:10.37,2013-02-05 17:19:00,
2013-02-05 12:20:00,49.8,30.4,30.05,West,263,5.5,7.0,47,0.00,OVC,,0.00,234.0,WeatherDisplay:10.37,2013-02-05 17:20:00,
2013-02-05 12:21:00,49.8,29.8,30.05,West,263,5.9,6.9,46,0.00,CLR,OVC,0.00,234.0,WeatherDisplay:10.37,2013-02-05 17:21:00,
2013-02-05 12:24:00,49.8,30.4,30.05,West,263,4.0,5.8,47,0.00,CLR,OVC,0.00,301.0,WeatherDisplay:10.37,2013-02-05 17:24:00,
2013-02-05 12:26:00,49.8,29.8,30.05,West,263,5.0,6.9,46,0.00,CLR,OVC,0.00,301.0,WeatherDisplay:10.37,2013-02-05 17:26:00,
2013-02-05 12:27:00,49.8,29.8,30.05,SW,234,6.1,10.4,46,0.00,CLR,OVC,0.00,629.0,WeatherDisplay:10.37,2013-02-05 17:27:00,
2013-02-05 12:30:00,49.9,29.9,30.05,SW,234,5.2,6.9,46,0.00,CLR,OVC,0.00,631.0,WeatherDisplay:10.37,2013-02-05 17:30:00,
2013-02-05 12:31:00,49.9,29.9,30.05,SW,234,4.1,6.9,46,0.00,CLR,OVC,0.00,631.0,WeatherDisplay:10.37,2013-02-05 17:31:00,
2013-02-05 12:32:00,50.1,30.1,30.05,SW,233,3.9,6.0,46,0.00,CLR,OVC,0.00,628.0,WeatherDisplay:10.37,2013-02-05 17:32:00,
2013-02-05 12:35:00,50.5,30.5,30.04,SW,236,5.2,6.9,46,0.00,CLR,OVC,0.00,615.0,WeatherDisplay:10.37,2013-02-05 17:35:00,
2013-02-05 12:37:00,50.7,30.7,30.04,SW,236,4.6,6.0,46,0.00,CLR,OVC,0.00,617.0,WeatherDisplay:10.37,2013-02-05 17:37:00,
2013-02-05 12:38:00,50.8,30.7,30.04,SW,227,6.2,7.0,46,0.00,CLR,OVC,0.00,613.0,WeatherDisplay:10.37,2013-02-05 17:38:00,
2013-02-05 12:43:00,51.1,30.5,30.04,SW,219,3.6,9.2,45,0.00,CLR,OVC,0.00,610.0,WeatherDisplay:10.37,2013-02-05 17:43:00,
2013-02-05 12:44:00,51.3,31.2,30.04,SW,219,5.3,7.0,46,0.00,CLR,OVC,0.00,612.0,WeatherDisplay:10.37,2013-02-05 17:44:00,
2013-02-05 12:45:00,51.4,31.8,30.04,SW,225,9.4,9.4,47,0.00,CLR,OVC,0.00,617.0,WeatherDisplay:10.37,2013-02-05 17:45:00,
2013-02-05 12:48:00,51.7,30.5,30.03,SW,222,5.0,6.9,44,0.00,CLR,OVC,0.00,643.0,WeatherDisplay:10.37,2013-02-05 17:48:00,
2013-02-05 12:49:00,51.7,31.0,30.03,SW,219,8.2,11.5,45,0.00,CLR,OVC,0.00,650.0,WeatherDisplay:10.37,2013-02-05 17:49:00,
2013-02-05 12:51:00,52.0,30.2,30.03,SW,223,7.2,10.0,43,0.00,CLR,OVC,0.00,666.0,WeatherDisplay:10.37,2013-02-05 17:51:00,
2013-02-05 12:52:00,52.0,30.2,30.03,SW,225,5.9,10.4,43,0.00,CLR,OVC,0.00,633.0,WeatherDisplay:10.37,2013-02-05 17:52:00,
2013-02-05 12:54:00,51.9,30.1,30.03,SW,231,5.0,8.1,43,0.00,CLR,OVC,0.00,436.0,WeatherDisplay:10.37,2013-02-05 17:54:00,
2013-02-05 12:56:00,51.9,30.1,30.03,SW,231,4.4,5.8,43,0.00,CLR,OVC,0.00,424.0,WeatherDisplay:10.37,2013-02-05 17:56:00,
2013-02-05 12:58:00,51.9,30.1,30.03,SW,217,2.1,4.6,43,0.00,CLR,OVC,0.00,290.0,WeatherDisplay:10.37,2013-02-05 17:58:00,
2013-02-05 12:59:00,51.7,29.9,30.03,SSW,211,3.0,4.6,43,0.00,CLR,OVC,0.00,330.0,WeatherDisplay:10.37,2013-02-05 17:59:00,
2013-02-05 13:00:00,51.7,29.9,30.03,SSW,211,1.4,3.5,43,0.00,CLR,OVC,0.00,330.0,WeatherDisplay:10.37,2013-02-05 18:00:00,
2013-02-05 13:03:00,52.0,30.2,30.02,SSW,211,0.0,0.0,43,0.00,CLR,OVC,0.00,288.0,WeatherDisplay:10.37,2013-02-05 18:03:00,
2013-02-05 13:04:00,52.0,30.2,30.02,SSW,211,0.4,3.0,43,0.00,CLR,OVC,0.00,355.0,WeatherDisplay:10.37,2013-02-05 18:04:00,
2013-02-05 13:05:00,52.3,31.0,30.02,SSW,211,3.2,4.6,44,0.00,CLR,OVC,0.00,381.0,WeatherDisplay:10.37,2013-02-05 18:05:00,
2013-02-05 13:06:00,52.3,30.4,30.02,SSW,211,2.4,4.6,43,0.00,CLR,OVC,0.00,295.0,WeatherDisplay:10.37,2013-02-05 18:06:00,
2013-02-05 13:08:00,52.5,30.6,30.02,SSW,211,5.8,7.0,43,0.00,CLR,OVC,0.00,295.0,WeatherDisplay:10.37,2013-02-05 18:08:00,
2013-02-05 13:09:00,52.6,30.7,30.02,SW,228,6.8,10.0,43,0.00,CLR,OVC,0.00,552.0,WeatherDisplay:10.37,2013-02-05 18:09:00,
2013-02-05 13:11:00,52.6,30.7,30.02,SW,234,6.4,6.9,43,0.00,CLR,OVC,0.00,234.0,WeatherDisplay:10.37,2013-02-05 18:11:00,
2013-02-05 13:12:00,52.6,30.1,30.02,SW,234,4.3,6.9,42,0.00,CLR,OVC,0.00,234.0,WeatherDisplay:10.37,2013-02-05 18:12:00,
2013-02-05 13:13:00,52.6,30.7,30.02,SW,234,4.8,6.9,43,0.00,CLR,OVC,0.00,510.0,WeatherDisplay:10.37,2013-02-05 18:13:00,
2013-02-05 13:14:00,52.6,30.1,30.02,SW,234,3.3,3.5,42,0.00,CLR,OVC,0.00,510.0,WeatherDisplay:10.37,2013-02-05 18:14:00,
2013-02-05 13:16:00,52.6,30.1,30.02,WSW,240,7.6,11.0,42,0.00,CLR,OVC,0.00,369.0,WeatherDisplay:10.37,2013-02-05 18:16:00,
2013-02-05 13:18:00,52.6,30.7,30.02,WSW,242,6.6,11.5,43,0.00,CLR,OVC,0.00,369.0,WeatherDisplay:10.37,2013-02-05 18:18:00,
2013-02-05 13:20:00,52.6,30.1,30.02,WSW,242,6.3,10.4,42,0.00,CLR,OVC,0.00,461.0,WeatherDisplay:10.37,2013-02-05 18:20:00,
2013-02-05 13:22:00,52.8,30.3,30.02,WSW,246,8.8,12.0,42,0.00,CLR,OVC,0.00,420.0,WeatherDisplay:10.37,2013-02-05 18:22:00,
2013-02-05 13:23:00,52.8,30.3,30.02,WSW,246,10.6,11.5,42,0.00,CLR,OVC,0.00,396.0,WeatherDisplay:10.37,2013-02-05 18:23:00,
2013-02-05 13:24:00,52.8,29.7,30.02,WSW,246,6.8,11.5,41,0.00,CLR,OVC,0.00,396.0,WeatherDisplay:10.37,2013-02-05 18:24:00,
2013-02-05 13:27:00,52.9,31.0,30.02,WSW,246,3.4,5.8,43,0.00,CLR,OVC,0.00,536.0,WeatherDisplay:10.37,2013-02-05 18:27:00,
2013-02-05 13:28:00,53.1,31.2,30.02,WSW,246,2.7,5.8,43,0.00,CLR,OVC,0.00,536.0,WeatherDisplay:10.37,2013-02-05 18:28:00,
2013-02-05 13:29:00,53.2,31.3,30.02,WSW,246,4.7,5.8,43,0.00,CLR,OVC,0.00,536.0,WeatherDisplay:10.37,2013-02-05 18:29:00,
2013-02-05 13:30:00,53.2,31.3,30.02,WSW,246,5.0,12.0,43,0.00,CLR,OVC,0.00,209.0,WeatherDisplay:10.37,2013-02-05 18:30:00,
2013-02-05 13:32:00,53.5,30.4,30.02,WSW,255,5.8,10.0,41,0.00,CLR,OVC,0.00,229.0,WeatherDisplay:10.37,2013-02-05 18:32:00,
2013-02-05 13:34:00,53.5,30.4,30.01,West,263,9.1,10.4,41,0.00,CLR,OVC,0.00,485.0,WeatherDisplay:10.37,2013-02-05 18:34:00,
2013-02-05 13:35:00,53.5,30.4,30.01,West,265,9.3,12.7,41,0.00,CLR,OVC,0.00,190.0,WeatherDisplay:10.37,2013-02-05 18:35:00,
2013-02-05 13:36:00,53.5,30.4,30.01,West,265,8.4,11.5,41,0.00,CLR,OVC,0.00,190.0,WeatherDisplay:10.37,2013-02-05 18:36:00,
2013-02-05 13:38:00,53.3,30.2,30.01,West,267,5.8,9.0,41,0.00,CLR,OVC,0.00,251.0,WeatherDisplay:10.37,2013-02-05 18:38:00,
2013-02-05 13:39:00,53.3,30.2,30.01,West,261,7.1,9.0,41,0.00,CLR,OVC,0.00,251.0,WeatherDisplay:10.37,2013-02-05 18:39:00,
2013-02-05 13:41:00,53.5,29.7,30.01,WSW,249,10.7,13.8,40,0.00,CLR,OVC,0.00,251.0,WeatherDisplay:10.37,2013-02-05 18:41:00,
2013-02-05 13:43:00,53.6,30.4,30.01,WSW,248,7.1,10.0,41,0.00,CLR,OVC,0.00,510.0,WeatherDisplay:10.37,2013-02-05 18:43:00,
2013-02-05 13:44:00,53.8,30.6,30.01,WSW,248,7.8,10.4,41,0.00,CLR,OVC,0.00,547.0,WeatherDisplay:10.37,2013-02-05 18:44:00,
2013-02-05 13:45:00,53.8,31.2,30.01,WSW,248,7.7,10.4,42,0.00,CLR,OVC,0.00,557.0,WeatherDisplay:10.37,2013-02-05 18:45:00,
2013-02-05 13:48:00,53.8,30.0,30.00,WSW,252,5.8,7.0,40,0.00,CLR,OVC,0.00,483.0,WeatherDisplay:10.37,2013-02-05 18:48:00,
2013-02-05 13:50:00,53.8,30.0,30.00,WSW,252,5.3,6.9,40,0.00,CLR,OVC,0.00,369.0,WeatherDisplay:10.37,2013-02-05 18:50:00,
2013-02-05 13:53:00,53.9,30.1,30.00,WSW,251,0.6,6.9,40,0.00,CLR,OVC,0.00,599.0,WeatherDisplay:10.37,2013-02-05 18:53:00,
2013-02-05 13:55:00,54.2,31.0,30.00,WSW,249,5.0,7.0,41,0.00,CLR,OVC,0.00,578.0,WeatherDisplay:10.37,2013-02-05 18:55:00,
2013-02-05 13:57:00,54.5,31.3,30.00,WSW,249,3.4,6.9,41,0.00,CLR,OVC,0.00,571.0,WeatherDisplay:10.37,2013-02-05 18:57:00,
2013-02-05 13:59:00,54.7,30.2,30.00,SSW,205,5.4,10.0,39,0.00,CLR,OVC,0.00,566.0,WeatherDisplay:10.37,2013-02-05 18:59:00,
2013-02-05 14:01:00,54.8,32.1,30.00,WSW,237,8.1,14.0,42,0.00,CLR,OVC,0.00,564.0,WeatherDisplay:10.37,2013-02-05 19:01:00,
2013-02-05 14:03:00,55.0,30.5,30.00,WSW,243,9.6,12.7,39,0.00,CLR,OVC,0.00,534.0,WeatherDisplay:10.37,2013-02-05 19:03:00,
2013-02-05 14:06:00,55.0,30.5,30.00,WSW,240,6.7,10.0,39,0.00,CLR,OVC,0.00,557.0,WeatherDisplay:10.37,2013-02-05 19:06:00,
2013-02-05 14:08:00,55.0,31.1,30.00,WSW,238,7.3,10.4,40,0.00,CLR,OVC,0.00,563.0,WeatherDisplay:10.37,2013-02-05 19:08:00,
2013-02-05 14:09:00,55.1,31.2,30.00,WSW,238,5.1,6.0,40,0.00,CLR,OVC,0.00,570.0,WeatherDisplay:10.37,2013-02-05 19:09:00,
2013-02-05 14:11:00,55.3,30.7,30.00,SW,236,5.1,7.0,39,0.00,CLR,OVC,0.00,570.0,WeatherDisplay:10.37,2013-02-05 19:11:00,
2013-02-05 14:13:00,55.4,30.8,30.00,WNW,286,5.4,9.2,39,0.00,CLR,OVC,0.00,566.0,WeatherDisplay:10.37,2013-02-05 19:13:00,
2013-02-05 14:14:00,55.4,30.8,30.00,WNW,286,2.0,5.0,39,0.00,CLR,OVC,0.00,555.0,WeatherDisplay:10.37,2013-02-05 19:14:00,
2013-02-05 14:17:00,55.6,31.0,30.00,West,261,7.9,11.5,39,0.00,CLR,OVC,0.00,548.0,WeatherDisplay:10.37,2013-02-05 19:17:00,
2013-02-05 14:19:00,55.7,30.5,30.00,WSW,252,6.8,11.5,38,0.00,CLR,OVC,0.00,550.0,WeatherDisplay:10.37,2013-02-05 19:19:00,
2013-02-05 14:22:00,55.9,31.3,30.00,SW,229,3.9,11.5,39,0.00,CLR,OVC,0.00,563.0,WeatherDisplay:10.37,2013-02-05 19:22:00,
2013-02-05 14:23:00,56.0,31.4,30.00,SW,235,14.3,16.1,39,0.00,CLR,OVC,0.00,529.0,WeatherDisplay:10.37,2013-02-05 19:23:00,
2013-02-05 14:24:00,56.0,30.7,30.00,WSW,240,12.4,16.1,38,0.00,CLR,OVC,0.00,529.0,WeatherDisplay:10.37,2013-02-05 19:24:00,
2013-02-05 14:25:00,56.0,30.7,30.00,WSW,244,9.7,16.1,38,0.00,CLR,OVC,0.00,364.0,WeatherDisplay:10.37,2013-02-05 19:25:00,
2013-02-05 14:29:00,56.0,31.4,30.00,West,259,8.5,12.7,39,0.00,CLR,OVC,0.00,524.0,WeatherDisplay:10.37,2013-02-05 19:29:00,
2013-02-05 14:30:00,56.3,32.3,30.00,WSW,246,8.8,16.0,40,0.00,CLR,OVC,0.00,431.0,WeatherDisplay:10.37,2013-02-05 19:30:00,
2013-02-05 14:31:00,56.3,31.6,30.00,West,261,13.3,17.0,39,0.00,CLR,OVC,0.00,510.0,WeatherDisplay:10.37,2013-02-05 19:31:00,
2013-02-05 14:34:00,56.5,31.8,29.99,WSW,246,13.3,15.0,39,0.00,CLR,OVC,0.00,503.0,WeatherDisplay:10.37,2013-02-05 19:34:00,
2013-02-05 14:36:00,56.7,32.0,29.99,SW,226,12.0,15.0,39,0.00,CLR,OVC,0.00,499.0,WeatherDisplay:10.37,2013-02-05 19:36:00,
2013-02-05 14:37:00,56.9,32.2,29.99,SW,234,13.8,15.0,39,0.00,CLR,OVC,0.00,499.0,WeatherDisplay:10.37,2013-02-05 19:37:00,
2013-02-05 14:42:00,57.3,31.9,29.99,WSW,237,12.0,13.8,38,0.00,CLR,OVC,0.00,492.0,WeatherDisplay:10.37,2013-02-05 19:42:00,
2013-02-05 14:43:00,57.3,32.5,29.99,WSW,247,14.2,19.0,39,0.00,CLR,OVC,0.00,490.0,WeatherDisplay:10.37,2013-02-05 19:43:00,
2013-02-05 14:44:00,57.2,31.1,29.99,West,260,12.6,19.6,37,0.00,CLR,OVC,0.00,489.0,WeatherDisplay:10.37,2013-02-05 19:44:00,
2013-02-05 14:47:00,57.2,31.8,29.99,West,274,5.2,11.5,38,0.00,CLR,OVC,0.00,487.0,WeatherDisplay:10.37,2013-02-05 19:47:00,
2013-02-05 14:48:00,57.3,31.2,29.99,West,273,5.6,12.0,37,0.00,CLR,OVC,0.00,487.0,WeatherDisplay:10.37,2013-02-05 19:48:00,
2013-02-05 14:49:00,57.2,31.8,29.99,West,271,7.8,11.5,38,0.00,CLR,OVC,0.00,487.0,WeatherDisplay:10.37,2013-02-05 19:49:00,
2013-02-05 14:51:00,57.3,31.2,29.99,SW,221,14.6,18.4,37,0.00,CLR,OVC,0.00,489.0,WeatherDisplay:10.37,2013-02-05 19:51:00,
2013-02-05 14:54:00,57.5,32.7,29.99,SW,229,12.2,19.0,39,0.00,CLR,OVC,0.00,489.0,WeatherDisplay:10.37,2013-02-05 19:54:00,
2013-02-05 14:56:00,57.5,31.4,29.99,WSW,252,18.6,23.0,37,0.00,CLR,OVC,0.00,485.0,WeatherDisplay:10.37,2013-02-05 19:56:00,
2013-02-05 14:57:00,57.5,31.4,29.99,West,263,16.7,23.0,37,0.00,CLR,OVC,0.00,485.0,WeatherDisplay:10.37,2013-02-05 19:57:00,
2013-02-05 14:58:00,57.3,31.9,29.99,WSW,247,15.4,18.4,38,0.00,CLR,OVC,0.00,485.0,WeatherDisplay:10.37,2013-02-05 19:58:00,
2013-02-05 15:02:00,57.2,31.8,29.99,SW,226,14.4,17.3,38,0.00,CLR,OVC,0.00,482.0,WeatherDisplay:10.37,2013-02-05 20:02:00,
2013-02-05 15:05:00,57.5,32.1,29.99,SW,225,14.4,14.4,38,0.00,CLR,OVC,0.00,468.0,WeatherDisplay:10.37,2013-02-05 20:05:00,
2013-02-05 15:06:00,57.5,32.1,29.99,WSW,242,14.7,19.6,38,0.00,CLR,OVC,0.00,462.0,WeatherDisplay:10.37,2013-02-05 20:06:00,
2013-02-05 15:10:00,57.8,32.3,29.99,West,261,11.5,17.3,38,0.00,CLR,OVC,0.00,446.0,WeatherDisplay:10.37,2013-02-05 20:10:00,
2013-02-05 15:11:00,58.0,32.5,29.99,SW,219,12.2,16.0,38,0.00,CLR,OVC,0.00,436.0,WeatherDisplay:10.37,2013-02-05 20:11:00,
2013-02-05 15:12:00,58.1,32.6,29.99,WSW,237,14.0,16.0,38,0.00,CLR,OVC,0.00,436.0,WeatherDisplay:10.37,2013-02-05 20:12:00,
2013-02-05 15:15:00,58.1,31.9,29.99,WSW,239,11.9,17.3,37,0.00,BKN,OVC,0.00,197.0,WeatherDisplay:10.37,2013-02-05 20:15:00,
2013-02-05 15:16:00,58.1,31.9,29.99,West,264,11.9,13.8,37,0.00,BKN,OVC,0.00,197.0,WeatherDisplay:10.37,2013-02-05 20:16:00,
2013-02-05 15:17:00,58.0,31.8,29.99,WSW,245,13.8,13.8,37,0.00,BKN,OVC,0.00,163.0,WeatherDisplay:10.37,2013-02-05 20:17:00,
2013-02-05 15:19:00,58.0,32.5,29.99,WSW,248,10.1,16.1,38,0.00,FEW,OVC,0.00,338.0,WeatherDisplay:10.37,2013-02-05 20:19:00,
2013-02-05 15:21:00,58.0,31.8,29.99,West,261,10.9,12.7,37,0.00,FEW,OVC,0.00,338.0,WeatherDisplay:10.37,2013-02-05 20:21:00,
2013-02-05 15:25:00,58.1,31.9,29.99,West,271,8.5,15.0,37,0.00,CLR,OVC,0.00,390.0,WeatherDisplay:10.37,2013-02-05 20:25:00,
2013-02-05 15:26:00,58.1,31.3,29.99,WNW,294,12.4,15.0,36,0.00,FEW,OVC,0.00,390.0,WeatherDisplay:10.37,2013-02-05 20:26:00,
2013-02-05 15:27:00,58.0,31.2,29.99,West,271,11.9,13.8,36,0.00,FEW,OVC,0.00,390.0,WeatherDisplay:10.37,2013-02-05 20:27:00,
2013-02-05 15:30:00,58.0,32.5,29.99,West,268,5.8,10.4,38,0.00,CLR,OVC,0.00,413.0,WeatherDisplay:10.37,2013-02-05 20:30:00,
2013-02-05 15:31:00,58.0,32.5,29.99,West,269,4.7,10.4,38,0.00,CLR,OVC,0.00,413.0,WeatherDisplay:10.37,2013-02-05 20:31:00,
2013-02-05 15:33:00,58.3,34.1,29.99,West,277,3.9,5.8,40,0.00,FEW,OVC,0.00,385.0,WeatherDisplay:10.37,2013-02-05 20:33:00,
2013-02-05 15:36:00,58.6,31.7,29.99,West,266,8.9,11.5,36,0.00,FEW,OVC,0.00,371.0,WeatherDisplay:10.37,2013-02-05 20:36:00,
2013-02-05 15:39:00,58.6,31.7,29.99,WNW,298,13.2,18.4,36,0.00,FEW,OVC,0.00,364.0,WeatherDisplay:10.37,2013-02-05 20:39:00,
2013-02-05 15:40:00,58.6,31.7,29.99,West,271,12.1,16.1,36,0.00,SCT,OVC,0.00,357.0,WeatherDisplay:10.37,2013-02-05 20:40:00,
2013-02-05 15:42:00,58.6,31.7,29.99,West,259,10.9,15.0,36,0.00,SCT,OVC,0.00,350.0,WeatherDisplay:10.37,2013-02-05 20:42:00,
2013-02-05 15:43:00,58.6,31.7,29.99,SW,232,12.4,15.0,36,0.00,SCT,OVC,0.00,345.0,WeatherDisplay:10.37,2013-02-05 20:43:00,
2013-02-05 15:44:00,58.7,31.8,29.99,WSW,252,12.9,16.1,36,0.00,SCT,OVC,0.00,345.0,WeatherDisplay:10.37,2013-02-05 20:44:00,
2013-02-05 15:45:00,58.7,31.8,29.99,West,262,13.3,16.1,36,0.00,SCT,OVC,0.00,348.0,WeatherDisplay:10.37,2013-02-05 20:45:00,
2013-02-05 15:47:00,58.6,31.7,29.99,West,261,14.9,16.1,36,0.00,SCT,OVC,0.00,343.0,WeatherDisplay:10.37,2013-02-05 20:47:00,
2013-02-05 15:49:00,58.6,31.7,29.99,West,269,9.4,15.0,36,0.00,SCT,OVC,0.00,338.0,WeatherDisplay:10.37,2013-02-05 20:49:00,
2013-02-05 15:50:00,58.6,31.7,29.99,WSW,255,13.5,15.0,36,0.00,SCT,OVC,0.00,336.0,WeatherDisplay:10.37,2013-02-05 20:50:00,
2013-02-05 15:51:00,58.6,31.7,29.99,WSW,242,7.6,13.8,36,0.00,SCT,OVC,0.00,336.0,WeatherDisplay:10.37,2013-02-05 20:51:00,
2013-02-05 15:52:00,58.6,31.7,29.99,SW,225,8.7,13.8,36,0.00,SCT,OVC,0.00,332.0,WeatherDisplay:10.37,2013-02-05 20:52:00,
2013-02-05 15:55:00,58.7,31.8,29.99,SW,229,6.1,10.4,36,0.00,SCT,OVC,0.00,329.0,WeatherDisplay:10.37,2013-02-05 20:55:00,
2013-02-05 15:57:00,58.9,32.0,29.99,WSW,240,11.3,13.0,36,0.00,SCT,OVC,0.00,318.0,WeatherDisplay:10.37,2013-02-05 20:57:00,
2013-02-05 15:59:00,58.9,32.0,29.99,SW,233,10.9,12.7,36,0.00,SCT,OVC,0.00,313.0,WeatherDisplay:10.37,2013-02-05 20:59:00,
2013-02-05 16:00:00,58.9,32.0,29.99,SW,234,10.0,17.0,36,0.00,SCT,OVC,0.00,309.0,WeatherDisplay:10.37,2013-02-05 21:00:00,
2013-02-05 16:02:00,58.9,31.3,29.99,West,265,11.1,12.7,35,0.00,SCT,OVC,0.00,308.0,WeatherDisplay:10.37,2013-02-05 21:02:00,
2013-02-05 16:06:00,58.9,31.3,29.99,WNW,289,8.4,12.7,35,0.00,SCT,OVC,0.00,292.0,WeatherDisplay:10.37,2013-02-05 21:06:00,
2013-02-05 16:07:00,58.9,32.7,29.99,West,262,9.0,11.5,37,0.00,SCT,OVC,0.00,287.0,WeatherDisplay:10.37,2013-02-05 21:07:00,
2013-02-05 16:09:00,58.9,32.0,29.99,West,271,10.1,11.5,36,0.00,SCT,OVC,0.00,285.0,WeatherDisplay:10.37,2013-02-05 21:09:00,
2013-02-05 16:11:00,58.9,31.3,29.99,West,279,7.9,11.5,35,0.00,SCT,OVC,0.00,281.0,WeatherDisplay:10.37,2013-02-05 21:11:00,
2013-02-05 16:12:00,58.9,32.0,29.99,WSW,247,10.8,13.8,36,0.00,BKN,OVC,0.00,54.0,WeatherDisplay:10.37,2013-02-05 21:12:00,
2013-02-05 16:14:00,58.7,31.8,29.99,SW,225,10.7,11.5,36,0.00,BKN,OVC,0.00,274.0,WeatherDisplay:10.37,2013-02-05 21:14:00,
2013-02-05 16:16:00,58.7,32.5,29.99,SW,227,11.9,14.0,37,0.00,BKN,OVC,0.00,269.0,WeatherDisplay:10.37,2013-02-05 21:16:00,
2013-02-05 16:17:00,58.9,31.3,29.99,WSW,248,8.4,15.0,35,0.00,BKN,OVC,0.00,271.0,WeatherDisplay:10.37,2013-02-05 21:17:00,
2013-02-05 16:19:00,58.9,32.0,29.99,SW,223,6.6,10.4,36,0.00,BKN,OVC,0.00,193.0,WeatherDisplay:10.37,2013-02-05 21:19:00,
2013-02-05 16:22:00,59.2,31.5,29.99,SW,236,10.1,11.5,35,0.00,BKN,OVC,0.00,234.0,WeatherDisplay:10.37,2013-02-05 21:22:00,
2013-02-05 16:23:00,59.0,31.4,29.99,WSW,250,11.2,12.0,35,0.00,BKN,OVC,0.00,234.0,WeatherDisplay:10.37,2013-02-05 21:23:00,
2013-02-05 16:24:00,59.0,32.1,29.99,WSW,242,10.9,13.8,36,0.00,BKN,OVC,0.00,93.0,WeatherDisplay:10.37,2013-02-05 21:24:00,
2013-02-05 16:25:00,59.0,32.1,29.99,SW,234,11.6,13.8,36,0.00,BKN,OVC,0.00,93.0,WeatherDisplay:10.37,2013-02-05 21:25:00,
2013-02-05 16:27:00,58.9,32.0,29.99,West,259,6.7,11.5,36,0.00,BKN,OVC,0.00,84.0,WeatherDisplay:10.37,2013-02-05 21:27:00,
2013-02-05 16:28:00,58.9,32.0,29.99,West,267,7.1,11.5,36,0.00,BKN,OVC,0.00,120.0,WeatherDisplay:10.37,2013-02-05 21:28:00,
2013-02-05 16:29:00,58.9,32.7,29.99,West,271,9.6,13.8,37,0.00,BKN,OVC,0.00,141.0,WeatherDisplay:10.37,2013-02-05 21:29:00,
2013-02-05 16:30:00,58.9,32.7,29.99,WSW,257,9.5,13.8,37,0.00,BKN,OVC,0.00,141.0,WeatherDisplay:10.37,2013-02-05 21:30:00,
2013-02-05 16:35:00,59.0,31.4,29.99,SW,234,10.8,12.7,35,0.00,BKN,OVC,0.00,225.0,WeatherDisplay:10.37,2013-02-05 21:35:00,
2013-02-05 16:37:00,59.2,32.2,29.99,SW,236,10.3,13.0,36,0.00,BKN,OVC,0.00,211.0,WeatherDisplay:10.37,2013-02-05 21:37:00,
2013-02-05 16:40:00,59.2,31.5,29.99,WSW,241,10.1,12.7,35,0.00,BKN,OVC,0.00,207.0,WeatherDisplay:10.37,2013-02-05 21:40:00,
2013-02-05 16:43:00,59.3,32.3,29.99,West,259,7.4,11.5,36,0.00,BKN,OVC,0.00,207.0,WeatherDisplay:10.37,2013-02-05 21:43:00,
2013-02-05 16:44:00,59.3,31.6,29.99,West,260,8.8,11.5,35,0.00,BKN,OVC,0.00,207.0,WeatherDisplay:10.37,2013-02-05 21:44:00,
2013-02-05 16:48:00,59.5,31.8,29.99,SW,220,10.6,13.0,35,0.00,BKN,OVC,0.00,188.0,WeatherDisplay:10.37,2013-02-05 21:48:00,
2013-02-05 16:49:00,59.5,31.8,29.99,SW,225,11.1,11.5,35,0.00,BKN,OVC,0.00,188.0,WeatherDisplay:10.37,2013-02-05 21:49:00,
2013-02-05 16:50:00,59.5,32.5,29.99,WSW,241,9.9,12.7,36,0.00,BKN,OVC,0.00,179.0,WeatherDisplay:10.37,2013-02-05 21:50:00,
2013-02-05 16:53:00,59.2,30.8,29.99,SW,232,12.9,16.1,34,0.00,BKN,OVC,0.00,58.0,WeatherDisplay:10.37,2013-02-05 21:53:00,
2013-02-05 16:54:00,59.0,30.6,29.99,WSW,245,11.6,16.1,34,0.00,BKN,OVC,0.00,56.0,WeatherDisplay:10.37,2013-02-05 21:54:00,
2013-02-05 16:59:00,58.7,31.1,29.99,WSW,248,10.8,16.1,35,0.00,BKN,OVC,0.00,74.0,WeatherDisplay:10.37,2013-02-05 21:59:00,
2013-02-05 17:00:00,58.7,31.1,29.99,SW,234,10.0,15.0,35,0.00,BKN,OVC,0.00,67.0,WeatherDisplay:10.37,2013-02-05 22:00:00,
2013-02-05 17:02:00,58.7,31.1,29.99,WSW,238,12.2,15.0,35,0.00,BKN,OVC,0.00,79.0,WeatherDisplay:10.37,2013-02-05 22:02:00,
2013-02-05 17:04:00,58.7,31.8,29.99,West,262,8.2,10.4,36,0.00,BKN,OVC,0.00,56.0,WeatherDisplay:10.37,2013-02-05 22:04:00,
2013-02-05 17:06:00,58.6,32.4,29.99,West,263,6.3,9.2,37,0.00,BKN,OVC,0.00,60.0,WeatherDisplay:10.37,2013-02-05 22:06:00,
2013-02-05 17:08:00,58.4,31.5,29.99,WSW,247,8.3,11.5,36,0.00,BKN,OVC,0.00,54.0,WeatherDisplay:10.37,2013-02-05 22:08:00,
2013-02-05 17:10:00,58.4,31.5,29.99,WSW,239,10.6,12.0,36,0.00,BKN,OVC,0.00,54.0,WeatherDisplay:10.37,2013-02-05 22:10:00,
2013-02-05 17:11:00,58.4,31.5,29.99,WSW,248,10.9,15.0,36,0.00,BKN,OVC,0.00,53.0,WeatherDisplay:10.37,2013-02-05 22:11:00,
2013-02-05 17:15:00,58.3,32.1,29.99,West,275,5.8,8.1,37,0.00,BKN,OVC,0.00,42.0,WeatherDisplay:10.37,2013-02-05 22:15:00,
2013-02-05 17:16:00,58.3,32.1,29.99,West,275,4.8,6.9,37,0.00,BKN,OVC,0.00,42.0,WeatherDisplay:10.37,2013-02-05 22:16:00,
2013-02-05 17:18:00,58.1,32.6,29.99,West,275,4.2,5.8,38,0.00,BKN,OVC,0.00,42.0,WeatherDisplay:10.37,2013-02-05 22:18:00,
2013-02-05 17:20:00,58.0,32.5,29.99,WNW,296,6.5,10.4,38,0.00,BKN,OVC,0.00,42.0,WeatherDisplay:10.37,2013-02-05 22:20:00,
2013-02-05 17:22:00,58.0,33.2,29.99,WNW,293,6.1,8.1,39,0.00,BKN,OVC,0.00,37.0,WeatherDisplay:10.37,2013-02-05 22:22:00,
2013-02-05 17:23:00,57.8,33.0,29.99,WNW,286,7.1,9.2,39,0.00,BKN,OVC,0.00,35.0,WeatherDisplay:10.37,2013-02-05 22:23:00,
2013-02-05 17:25:00,57.8,33.0,29.99,WNW,289,5.0,9.2,39,0.00,OVC,,0.00,33.0,WeatherDisplay:10.37,2013-02-05 22:25:00,
2013-02-05 17:29:00,57.6,32.8,29.99,WNW,284,5.8,10.4,39,0.00,OVC,,0.00,26.0,WeatherDisplay:10.37,2013-02-05 22:29:00,
2013-02-05 17:30:00,57.5,32.7,29.99,WNW,284,5.4,8.1,39,0.00,OVC,,0.00,25.0,WeatherDisplay:10.37,2013-02-05 22:30:00,
2013-02-05 17:31:00,57.5,32.7,29.99,WNW,285,5.6,6.9,39,0.00,OVC,,0.00,25.0,WeatherDisplay:10.37,2013-02-05 22:31:00,
2013-02-05 17:35:00,57.5,32.7,29.99,WNW,285,4.5,5.8,39,0.00,OVC,,0.00,21.0,WeatherDisplay:10.37,2013-02-05 22:35:00,
2013-02-05 17:36:00,57.3,32.5,29.99,WNW,285,4.7,4.7,39,0.00,OVC,,0.00,21.0,WeatherDisplay:10.37,2013-02-05 22:36:00,
2013-02-05 17:37:00,57.3,32.5,29.99,WNW,285,4.5,5.0,39,0.00,OVC,,0.00,19.0,WeatherDisplay:10.37,2013-02-05 22:37:00,
2013-02-05 17:40:00,57.3,32.5,29.99,WNW,285,3.4,5.8,39,0.00,OVC,,0.00,16.0,WeatherDisplay:10.37,2013-02-05 22:40:00,
2013-02-05 17:41:00,57.2,32.4,29.99,WNW,285,3.7,5.0,39,0.00,OVC,,0.00,16.0,WeatherDisplay:10.37,2013-02-05 22:41:00,
2013-02-05 17:42:00,57.2,32.4,29.99,WNW,285,5.1,5.8,39,0.00,OVC,,0.00,16.0,WeatherDisplay:10.37,2013-02-05 22:42:00,
2013-02-05 17:44:00,57.2,32.4,29.99,WNW,290,5.2,5.8,39,0.00,OVC,,0.00,12.0,WeatherDisplay:10.37,2013-02-05 22:44:00,
2013-02-05 17:45:00,57.2,32.4,29.99,WNW,290,4.7,5.8,39,0.00,OVC,,0.00,12.0,WeatherDisplay:10.37,2013-02-05 22:45:00,
2013-02-05 17:49:00,57.0,32.9,30.00,WNW,291,4.7,5.8,40,0.00,OVC,,0.00,7.0,WeatherDisplay:10.37,2013-02-05 22:49:00,
2013-02-05 17:50:00,56.9,32.2,30.00,WNW,292,5.4,6.9,39,0.00,OVC,,0.00,7.0,WeatherDisplay:10.37,2013-02-05 22:50:00,
2013-02-05 17:52:00,56.9,32.8,30.00,WNW,298,5.6,6.0,40,0.00,OVC,,0.00,5.0,WeatherDisplay:10.37,2013-02-05 22:52:00,
2013-02-05 17:54:00,56.9,32.8,30.00,WNW,300,4.5,9.2,40,0.00,OVC,,0.00,5.0,WeatherDisplay:10.37,2013-02-05 22:54:00,
2013-02-05 17:59:00,56.6,32.5,30.00,WNW,300,4.4,5.0,40,0.00,OVC,,0.00,5.0,WeatherDisplay:10.37,2013-02-05 22:59:00,
2013-02-05 18:00:00,56.6,32.5,30.00,WNW,300,3.7,5.8,40,0.00,OVC,,0.00,5.0,WeatherDisplay:10.37,2013-02-05 23:00:00,
2013-02-05 18:04:00,56.5,33.1,30.01,WNW,300,3.2,4.6,41,0.00,,OVC,0.00,0.0,WeatherDisplay:10.37,2013-02-05 23:04:00,
2013-02-05 18:05:00,56.3,32.9,30.01,WNW,300,2.4,3.5,41,0.00,,OVC,0.00,0.0,WeatherDisplay:10.37,2013-02-05 23:05:00,
2013-02-05 18:06:00,56.3,32.9,30.01,WNW,300,2.4,4.0,41,0.00,,OVC,0.00,0.0,WeatherDisplay:10.37,2013-02-05 23:06:00,
2013-02-05 18:10:00,55.9,33.1,30.01,WNW,300,2.1,3.5,42,0.00,,OVC,0.00,0.0,WeatherDisplay:10.37,2013-02-05 23:10:00,
2013-02-05 18:11:00,55.9,33.1,30.01,WNW,300,2.1,3.5,42,0.00,,OVC,0.00,0.0,WeatherDisplay:10.37,2013-02-05 23:11:00,
2013-02-05 18:16:00,55.4,33.3,30.01,NW,307,5.0,6.9,43,0.00,,OVC,0.00,0.0,WeatherDisplay:10.37,2013-02-05 23:16:00,
2013-02-05 18:17:00,55.4,33.3,30.01,NW,307,4.4,6.9,43,0.00,,OVC,0.00,0.0,WeatherDisplay:10.37,2013-02-05 23:17:00,
2013-02-05 18:18:00,55.3,33.2,30.02,NW,309,6.8,9.2,43,0.00,,OVC,0.00,0.0,WeatherDisplay:10.37,2013-02-05 23:18:00,
2013-02-05 18:22:00,55.0,33.5,30.02,NW,314,5.4,6.9,44,0.00,,OVC,0.00,0.0,WeatherDisplay:10.37,2013-02-05 23:22:00,
2013-02-05 18:23:00,55.0,33.5,30.02,NW,314,5.2,6.9,44,0.00,,OVC,0.00,0.0,WeatherDisplay:10.37,2013-02-05 23:23:00,
2013-02-05 18:24:00,54.8,33.3,30.02,NW,314,4.2,5.8,44,0.00,,OVC,0.00,0.0,WeatherDisplay:10.37,2013-02-05 23:24:00,
2013-02-05 18:27:00,54.7,33.8,30.02,NW,307,4.4,6.0,45,0.00,,OVC,0.00,0.0,WeatherDisplay:10.37,2013-02-05 23:27:00,
2013-02-05 18:29:00,54.5,33.6,30.02,NW,307,4.2,5.8,45,0.00,,OVC,0.00,0.0,WeatherDisplay:10.37,2013-02-05 23:29:00,
2013-02-05 18:30:00,54.5,33.6,30.02,NW,307,4.2,5.8,45,0.00,,OVC,0.00,0.0,WeatherDisplay:10.37,2013-02-05 23:30:00,
2013-02-05 18:33:00,54.4,33.5,30.02,NW,306,3.5,5.8,45,0.00,,OVC,0.00,0.0,WeatherDisplay:10.37,2013-02-05 23:33:00,
2013-02-05 18:34:00,54.4,33.5,30.02,NW,306,4.2,4.6,45,0.00,,OVC,0.00,0.0,WeatherDisplay:10.37,2013-02-05 23:34:00,
2013-02-05 18:37:00,54.1,33.8,30.02,NW,306,3.6,5.8,46,0.00,,OVC,0.00,0.0,WeatherDisplay:10.37,2013-02-05 23:37:00,
2013-02-05 18:39:00,53.9,33.6,30.02,NW,306,4.0,5.8,46,0.00,,OVC,0.00,0.0,WeatherDisplay:10.37,2013-02-05 23:39:00,
2013-02-05 18:40:00,53.9,33.6,30.02,NW,306,4.1,5.8,46,0.00,,OVC,0.00,0.0,WeatherDisplay:10.37,2013-02-05 23:40:00,
2013-02-05 18:42:00,53.8,33.5,30.02,NW,306,3.0,4.6,46,0.00,,OVC,0.00,0.0,WeatherDisplay:10.37,2013-02-05 23:42:00,
2013-02-05 18:44:00,53.6,33.8,30.02,NW,306,3.8,4.6,47,0.00,,OVC,0.00,0.0,WeatherDisplay:10.37,2013-02-05 23:44:00,
2013-02-05 18:46:00,53.6,33.3,30.02,NW,306,3.3,5.0,46,0.00,,OVC,0.00,0.0,WeatherDisplay:10.37,2013-02-05 23:46:00,
2013-02-05 18:51:00,53.3,33.6,30.02,NW,306,4.4,5.0,47,0.00,,OVC,0.00,0.0,WeatherDisplay:10.37,2013-02-05 23:51:00,
2013-02-05 18:53:00,53.2,33.5,30.02,NW,306,4.6,5.0,47,0.00,,OVC,0.00,0.0,WeatherDisplay:10.37,2013-02-05 23:53:00,
2013-02-05 18:55:00,53.1,33.4,30.02,NW,306,5.0,5.0,47,0.00,,OVC,0.00,0.0,WeatherDisplay:10.37,2013-02-05 23:55:00,
2013-02-05 18:56:00,52.9,33.7,30.02,NW,306,5.1,5.8,48,0.00,,OVC,0.00,0.0,WeatherDisplay:10.37,2013-02-05 23:56:00,
2013-02-05 18:57:00,52.9,33.7,30.02,NW,326,5.5,12.0,48,0.00,,OVC,0.00,0.0,WeatherDisplay:10.37,2013-02-05 23:57:00,
2013-02-05 19:00:00,52.6,33.5,30.02,NNW,332,8.1,10.4,48,0.00,,OVC,0.00,0.0,WeatherDisplay:10.37,2013-02-06 00:00:00,
2013-02-05 19:02:00,52.3,33.2,30.02,NNW,331,6.7,9.2,48,0.00,,OVC,0.00,0.0,WeatherDisplay:10.37,2013-02-06 00:02:00,
2013-02-05 19:04:00,52.2,33.6,30.03,NNW,332,6.8,11.5,49,0.00,,OVC,0.00,0.0,WeatherDisplay:10.37,2013-02-06 00:04:00,
2013-02-05 19:05:00,52.0,33.4,30.03,NNW,331,5.9,11.5,49,0.00,,OVC,0.00,0.0,WeatherDisplay:10.37,2013-02-06 00:05:00,
2013-02-05 19:07:00,51.7,33.1,30.03,NNW,332,5.3,6.9,49,0.00,,OVC,0.00,0.0,WeatherDisplay:10.37,2013-02-06 00:07:00,
2013-02-05 19:10:00,51.7,33.1,30.03,NNW,332,5.1,6.9,49,0.00,,OVC,0.00,0.0,WeatherDisplay:10.37,2013-02-06 00:10:00,
2013-02-05 19:12:00,51.7,33.1,30.03,NNW,332,4.2,4.6,49,0.00,,OVC,0.00,0.0,WeatherDisplay:10.37,2013-02-06 00:12:00,
2013-02-05 19:15:00,51.6,33.0,30.03,NNW,332,3.3,5.0,49,0.00,,OVC,0.00,0.0,WeatherDisplay:10.37,2013-02-06 00:15:00,
2013-02-05 19:16:00,51.6,33.0,30.03,NNW,331,3.3,4.6,49,0.00,,OVC,0.00,0.0,WeatherDisplay:10.37,2013-02-06 00:16:00,
2013-02-05 19:18:00,51.6,33.0,30.04,NNW,331,3.6,4.6,49,0.00,,OVC,0.00,0.0,WeatherDisplay:10.37,2013-02-06 00:18:00,
2013-02-05 19:20:00,51.4,32.9,30.04,NNW,331,2.3,3.5,49,0.00,,OVC,0.00,0.0,WeatherDisplay:10.37,2013-02-06 00:20:00,
2013-02-05 19:21:00,51.4,32.9,30.04,NNW,331,2.3,4.0,49,0.00,,OVC,0.00,0.0,WeatherDisplay:10.37,2013-02-06 00:21:00,
2013-02-05 19:24:00,51.3,33.3,30.04,NNW,331,2.5,3.5,50,0.00,,OVC,0.00,0.0,WeatherDisplay:10.37,2013-02-06 00:24:00,
2013-02-05 19:26:00,51.1,33.1,30.04,NNW,331,2.6,3.5,50,0.00,,OVC,0.00,0.0,WeatherDisplay:10.37,2013-02-06 00:26:00,
2013-02-05 19:27:00,51.1,33.1,30.04,NNW,331,2.0,4.0,50,0.00,,OVC,0.00,0.0,WeatherDisplay:10.37,2013-02-06 00:27:00,
2013-02-05 19:29:00,51.0,33.0,30.04,NNW,331,2.3,4.0,50,0.00,,OVC,0.00,0.0,WeatherDisplay:10.37,2013-02-06 00:29:00,
2013-02-05 19:31:00,50.8,33.3,30.04,NNW,331,3.3,4.6,51,0.00,,OVC,0.00,0.0,WeatherDisplay:10.37,2013-02-06 00:31:00,
2013-02-05 19:32:00,50.8,33.3,30.04,NNW,331,3.4,4.6,51,0.00,,OVC,0.00,0.0,WeatherDisplay:10.37,2013-02-06 00:32:00,
2013-02-05 19:34:00,50.7,33.2,30.04,NNW,331,1.9,3.5,51,0.00,,OVC,0.00,0.0,WeatherDisplay:10.37,2013-02-06 00:34:00,
2013-02-05 19:37:00,50.5,33.0,30.04,NNW,331,1.5,3.5,51,0.00,,OVC,0.00,0.0,WeatherDisplay:10.37,2013-02-06 00:37:00,
2013-02-05 19:41:00,50.4,32.9,30.04,NNW,331,0.3,2.3,51,0.00,,OVC,0.00,0.0,WeatherDisplay:10.37,2013-02-06 00:41:00,
2013-02-05 19:42:00,50.2,32.8,30.04,NNW,332,1.0,2.3,51,0.00,,OVC,0.00,0.0,WeatherDisplay:10.37,2013-02-06 00:42:00,
2013-02-05 19:43:00,50.2,32.8,30.04,NNW,331,0.8,2.3,51,0.00,,OVC,0.00,0.0,WeatherDisplay:10.37,2013-02-06 00:43:00,
2013-02-05 19:46:00,50.2,32.8,30.04,NNW,331,1.6,2.3,51,0.00,,OVC,0.00,0.0,WeatherDisplay:10.37,2013-02-06 00:46:00,
2013-02-05 19:48:00,50.1,32.7,30.05,NNW,331,1.3,2.3,51,0.00,,OVC,0.00,0.0,WeatherDisplay:10.37,2013-02-06 00:48:00,
2013-02-05 19:50:00,50.1,32.7,30.05,NNW,331,0.0,1.2,51,0.00,,OVC,0.00,0.0,WeatherDisplay:10.37,2013-02-06 00:50:00,
2013-02-05 19:54:00,49.9,32.5,30.05,NNW,332,1.0,2.3,51,0.00,,OVC,0.00,0.0,WeatherDisplay:10.37,2013-02-06 00:54:00,
2013-02-05 19:55:00,49.9,32.5,30.05,NNW,331,0.8,1.2,51,0.00,,OVC,0.00,0.0,WeatherDisplay:10.37,2013-02-06 00:55:00,
2013-02-05 19:57:00,49.8,32.9,30.05,NNW,331,0.0,0.0,52,0.00,,OVC,0.00,0.0,WeatherDisplay:10.37,2013-02-06 00:57:00,
2013-02-05 20:00:00,49.8,32.9,30.05,NNW,331,0.0,0.0,52,0.00,,OVC,0.00,0.0,WeatherDisplay:10.37,2013-02-06 01:00:00,
2013-02-05 20:03:00,49.6,32.7,30.05,NNW,331,0.0,0.0,52,0.00,,OVC,0.00,0.0,WeatherDisplay:10.37,2013-02-06 01:03:00,
2013-02-05 20:05:00,49.5,32.6,30.05,NNW,331,0.0,0.0,52,0.00,,OVC,0.00,0.0,WeatherDisplay:10.37,2013-02-06 01:05:00,
2013-02-05 20:06:00,49.5,32.6,30.05,NNW,331,0.0,0.0,52,0.00,,OVC,0.00,0.0,WeatherDisplay:10.37,2013-02-06 01:06:00,
2013-02-05 20:08:00,49.4,32.5,30.05,NNW,331,0.0,0.0,52,0.00,,OVC,0.00,0.0,WeatherDisplay:10.37,2013-02-06 01:08:00,
2013-02-05 20:12:00,49.1,32.7,30.05,NNW,331,0.5,2.0,53,0.00,,OVC,0.00,0.0,WeatherDisplay:10.37,2013-02-06 01:12:00,
2013-02-05 20:13:00,48.8,32.4,30.05,NNW,331,1.7,2.3,53,0.00,,OVC,0.00,0.0,WeatherDisplay:10.37,2013-02-06 01:13:00,
2013-02-05 20:15:00,48.5,32.6,30.05,NNW,331,1.2,2.3,54,0.00,,OVC,0.00,0.0,WeatherDisplay:10.37,2013-02-06 01:15:00,
2013-02-05 20:17:00,48.5,32.6,30.05,NNW,331,1.1,2.3,54,0.00,,OVC,0.00,0.0,WeatherDisplay:10.37,2013-02-06 01:17:00,
2013-02-05 20:18:00,48.3,32.4,30.05,NNW,331,1.5,2.3,54,0.00,,OVC,0.00,0.0,WeatherDisplay:10.37,2013-02-06 01:18:00,
2013-02-05 20:20:00,48.3,32.4,30.05,NNW,331,1.5,2.3,54,0.00,,OVC,0.00,0.0,WeatherDisplay:10.37,2013-02-06 01:20:00,
2013-02-05 20:21:00,48.2,32.3,30.05,NNW,331,1.3,2.3,54,0.00,,OVC,0.00,0.0,WeatherDisplay:10.37,2013-02-06 01:21:00,
2013-02-05 20:22:00,48.2,32.3,30.05,NNW,331,1.5,2.3,54,0.00,,OVC,0.00,0.0,WeatherDisplay:10.37,2013-02-06 01:22:00,
2013-02-05 20:23:00,48.2,32.3,30.05,NNW,331,1.2,2.3,54,0.00,,OVC,0.00,0.0,WeatherDisplay:10.37,2013-02-06 01:23:00,
2013-02-05 20:27:00,48.3,32.4,30.05,NNW,331,0.4,2.3,54,0.00,,OVC,0.00,0.0,WeatherDisplay:10.37,2013-02-06 01:27:00,
2013-02-05 20:28:00,48.3,32.4,30.05,NNW,331,0.0,1.2,54,0.00,,OVC,0.00,0.0,WeatherDisplay:10.37,2013-02-06 01:28:00,
2013-02-05 20:30:00,48.3,32.4,30.05,NNW,331,0.0,0.0,54,0.00,,OVC,0.00,0.0,WeatherDisplay:10.37,2013-02-06 01:30:00,
2013-02-05 20:33:00,48.2,33.2,30.06,NNW,331,0.0,0.0,56,0.00,,OVC,0.00,0.0,WeatherDisplay:10.37,2013-02-06 01:33:00,
2013-02-05 20:35:00,47.9,32.9,30.06,NNW,331,0.0,0.0,56,0.00,,OVC,0.00,0.0,WeatherDisplay:10.37,2013-02-06 01:35:00,
2013-02-05 20:38:00,47.3,32.8,30.06,NNW,331,0.0,0.0,57,0.00,,OVC,0.00,0.0,WeatherDisplay:10.37,2013-02-06 01:38:00,
2013-02-05 20:39:00,47.1,32.6,30.06,NNW,331,0.0,0.0,57,0.00,,OVC,0.00,0.0,WeatherDisplay:10.37,2013-02-06 01:39:00,
2013-02-05 20:40:00,47.0,32.5,30.06,NNW,331,0.0,0.0,57,0.00,,OVC,0.00,0.0,WeatherDisplay:10.37,2013-02-06 01:40:00,
2013-02-05 20:41:00,47.0,32.5,30.06,NNW,331,0.0,0.0,57,0.00,,OVC,0.00,0.0,WeatherDisplay:10.37,2013-02-06 01:41:00,
2013-02-05 20:44:00,46.5,32.5,30.06,NNW,331,0.0,0.0,58,0.00,,OVC,0.00,0.0,WeatherDisplay:10.37,2013-02-06 01:44:00,
2013-02-05 20:45:00,46.2,33.1,30.06,NNW,331,0.0,0.0,60,0.00,,OVC,0.00,0.0,WeatherDisplay:10.37,2013-02-06 01:45:00,
2013-02-05 20:46:00,46.1,33.0,30.06,NNW,331,0.0,0.0,60,0.00,,OVC,0.00,0.0,WeatherDisplay:10.37,2013-02-06 01:46:00,
2013-02-05 20:47:00,45.7,33.0,30.06,NNW,331,0.0,0.0,61,0.00,,OVC,0.00,0.0,WeatherDisplay:10.37,2013-02-06 01:47:00,
2013-02-05 20:50:00,45.1,32.8,30.06,NNW,331,0.0,0.0,62,0.00,,OVC,0.00,0.0,WeatherDisplay:10.37,2013-02-06 01:50:00,
2013-02-05 20:51:00,44.9,32.7,30.06,NNW,331,0.0,0.0,62,0.00,,OVC,0.00,0.0,WeatherDisplay:10.37,2013-02-06 01:51:00,
2013-02-05 20:52:00,44.8,32.6,30.06,NNW,331,0.0,0.0,62,0.00,,OVC,0.00,0.0,WeatherDisplay:10.37,2013-02-06 01:52:00,
2013-02-05 20:53:00,44.6,32.4,30.06,NNW,331,0.0,0.0,62,0.00,,OVC,0.00,0.0,WeatherDisplay:10.37,2013-02-06 01:53:00,
2013-02-05 20:57:00,44.6,32.4,30.06,NNW,331,0.0,0.0,62,0.00,,OVC,0.00,0.0,WeatherDisplay:10.37,2013-02-06 01:57:00,
2013-02-05 20:59:00,44.8,32.2,30.06,NNW,332,0.0,0.0,61,0.00,,OVC,0.00,0.0,WeatherDisplay:10.37,2013-02-06 01:59:00,
2013-02-05 21:02:00,44.5,32.3,30.06,NNW,331,0.0,0.0,62,0.00,,OVC,0.00,0.0,WeatherDisplay:10.37,2013-02-06 02:02:00,
2013-02-05 21:03:00,44.3,32.1,30.06,NNW,331,0.0,0.0,62,0.00,,OVC,0.00,0.0,WeatherDisplay:10.37,2013-02-06 02:03:00,
2013-02-05 21:04:00,44.2,32.0,30.06,NNW,331,0.0,0.0,62,0.00,,OVC,0.00,0.0,WeatherDisplay:10.37,2013-02-06 02:04:00,
2013-02-05 21:08:00,44.2,32.4,30.06,NNW,331,0.0,0.0,63,0.00,,OVC,0.00,0.0,WeatherDisplay:10.37,2013-02-06 02:08:00,
2013-02-05 21:09:00,44.1,32.3,30.06,NNW,331,0.0,0.0,63,0.00,,OVC,0.00,0.0,WeatherDisplay:10.37,2013-02-06 02:09:00,
2013-02-05 21:13:00,44.1,32.3,30.06,NNW,331,0.0,0.0,63,0.00,,OVC,0.00,0.0,WeatherDisplay:10.37,2013-02-06 02:13:00,
2013-02-05 21:14:00,44.1,32.3,30.06,NNW,332,0.0,0.0,63,0.00,,OVC,0.00,0.0,WeatherDisplay:10.37,2013-02-06 02:14:00,
2013-02-05 21:15:00,43.9,32.5,30.06,NNW,331,0.0,0.0,64,0.00,,OVC,0.00,0.0,WeatherDisplay:10.37,2013-02-06 02:15:00,
2013-02-05 21:19:00,43.5,32.5,30.06,NNW,331,0.0,0.0,65,0.00,,OVC,0.00,0.0,WeatherDisplay:10.37,2013-02-06 02:19:00,
2013-02-05 21:20:00,43.5,32.5,30.06,NNW,331,0.0,0.0,65,0.00,,OVC,0.00,0.0,WeatherDisplay:10.37,2013-02-06 02:20:00,
2013-02-05 21:21:00,43.5,32.5,30.06,NNW,331,0.0,0.0,65,0.00,,OVC,0.00,0.0,WeatherDisplay:10.37,2013-02-06 02:21:00,
2013-02-05 21:22:00,43.3,32.3,30.06,NNW,331,0.0,0.0,65,0.00,,OVC,0.00,0.0,WeatherDisplay:10.37,2013-02-06 02:22:00,
2013-02-05 21:25:00,42.8,32.2,30.06,NNW,331,0.0,0.0,66,0.00,,OVC,0.00,0.0,WeatherDisplay:10.37,2013-02-06 02:25:00,
2013-02-05 21:26:00,42.6,32.4,30.06,NNW,331,0.0,0.0,67,0.00,,OVC,0.00,0.0,WeatherDisplay:10.37,2013-02-06 02:26:00,
2013-02-05 21:29:00,42.1,32.7,30.06,NNW,331,0.0,0.0,69,0.00,,OVC,0.00,0.0,WeatherDisplay:10.37,2013-02-06 02:29:00,
2013-02-05 21:31:00,42.2,32.8,30.06,NNW,331,0.0,0.0,69,0.00,,OVC,0.00,0.0,WeatherDisplay:10.37,2013-02-06 02:31:00,
2013-02-05 21:32:00,42.2,32.8,30.06,NNW,331,0.0,0.0,69,0.00,,OVC,0.00,0.0,WeatherDisplay:10.37,2013-02-06 02:32:00,
2013-02-05 21:34:00,42.3,32.8,30.08,NNW,331,1.7,3.5,69,0.00,CLR,OVC,0.00,0.0,WeatherDisplay:10.37,2013-02-06 02:34:00,
2013-02-05 21:36:00,42.5,33.0,30.08,NNW,331,0.1,2.3,69,0.00,CLR,OVC,0.00,0.0,WeatherDisplay:10.37,2013-02-06 02:36:00,
2013-02-05 21:37:00,42.5,33.0,30.08,NNW,331,0.0,0.0,69,0.00,CLR,OVC,0.00,0.0,WeatherDisplay:10.37,2013-02-06 02:37:00,
2013-02-05 21:39:00,42.6,32.8,30.08,NNW,331,0.0,0.0,68,0.00,CLR,OVC,0.00,0.0,WeatherDisplay:10.37,2013-02-06 02:39:00,
2013-02-05 21:41:00,42.6,32.8,30.08,NNW,331,0.0,0.0,68,0.00,CLR,OVC,0.00,0.0,WeatherDisplay:10.37,2013-02-06 02:41:00,
2013-02-05 21:42:00,42.6,32.8,30.08,NNW,331,0.0,0.0,68,0.00,CLR,OVC,0.00,0.0,WeatherDisplay:10.37,2013-02-06 02:42:00,
2013-02-05 21:44:00,42.6,32.8,30.08,NNW,331,0.0,0.0,68,0.00,CLR,OVC,0.00,0.0,WeatherDisplay:10.37,2013-02-06 02:44:00,
2013-02-05 21:46:00,42.5,32.7,30.08,NNW,331,0.0,0.0,68,0.00,CLR,OVC,0.00,0.0,WeatherDisplay:10.37,2013-02-06 02:46:00,
2013-02-05 21:49:00,41.8,32.4,30.08,NNW,331,2.0,3.5,69,0.00,CLR,OVC,0.00,0.0,WeatherDisplay:10.37,2013-02-06 02:49:00,
2013-02-05 21:50:00,41.6,32.2,30.08,NNW,331,2.1,3.5,69,0.00,CLR,OVC,0.00,0.0,WeatherDisplay:10.37,2013-02-06 02:50:00,
2013-02-05 21:51:00,41.5,32.1,30.08,NNW,331,2.0,3.5,69,0.00,CLR,OVC,0.00,0.0,WeatherDisplay:10.37,2013-02-06 02:51:00,
2013-02-05 21:54:00,41.2,32.5,30.08,NNW,331,1.3,2.3,71,0.00,CLR,OVC,0.00,0.0,WeatherDisplay:10.37,2013-02-06 02:54:00,
2013-02-05 21:56:00,41.2,32.5,30.08,NNW,331,1.5,2.3,71,0.00,CLR,OVC,0.00,0.0,WeatherDisplay:10.37,2013-02-06 02:56:00,
2013-02-05 21:58:00,41.2,32.5,30.08,NNW,331,0.1,2.3,71,0.00,CLR,OVC,0.00,0.0,WeatherDisplay:10.37,2013-02-06 02:58:00,
2013-02-05 21:59:00,41.2,32.5,30.08,NNW,331,0.0,0.0,71,0.00,CLR,OVC,0.00,0.0,WeatherDisplay:10.37,2013-02-06 02:59:00,
2013-02-05 22:01:00,41.2,32.5,30.08,NNW,331,0.0,0.0,71,0.00,CLR,OVC,0.00,0.0,WeatherDisplay:10.37,2013-02-06 03:01:00,
2013-02-05 22:03:00,41.1,32.4,30.08,NNW,331,0.0,0.0,71,0.00,CLR,OVC,0.00,0.0,WeatherDisplay:10.37,2013-02-06 03:03:00,
2013-02-05 22:06:00,40.8,32.5,30.08,NNW,331,0.0,0.0,72,0.00,CLR,OVC,0.00,0.0,WeatherDisplay:10.37,2013-02-06 03:06:00,
2013-02-05 22:07:00,40.8,32.5,30.08,NNW,331,0.0,0.0,72,0.00,CLR,OVC,0.00,0.0,WeatherDisplay:10.37,2013-02-06 03:07:00,
2013-02-05 22:09:00,40.8,32.5,30.08,NNW,331,0.0,0.0,72,0.00,CLR,OVC,0.00,0.0,WeatherDisplay:10.37,2013-02-06 03:09:00,
2013-02-05 22:12:00,40.6,32.3,30.08,NNW,331,0.0,0.0,72,0.00,CLR,OVC,0.00,0.0,WeatherDisplay:10.37,2013-02-06 03:12:00,
2013-02-05 22:14:00,40.3,32.3,30.08,NNW,331,0.0,0.0,73,0.00,CLR,OVC,0.00,0.0,WeatherDisplay:10.37,2013-02-06 03:14:00,
2013-02-05 22:17:00,40.1,32.1,30.08,NNW,331,0.0,0.0,73,0.00,CLR,OVC,0.00,0.0,WeatherDisplay:10.37,2013-02-06 03:17:00,
2013-02-05 22:19:00,40.1,32.1,30.08,NNW,331,0.0,0.0,73,0.00,CLR,OVC,0.00,0.0,WeatherDisplay:10.37,2013-02-06 03:19:00,
2013-02-05 22:23:00,40.1,32.1,30.08,NNW,331,1.3,2.3,73,0.00,CLR,OVC,0.00,0.0,WeatherDisplay:10.37,2013-02-06 03:23:00,
2013-02-05 22:24:00,40.1,32.1,30.08,NNW,331,1.4,2.3,73,0.00,CLR,OVC,0.00,0.0,WeatherDisplay:10.37,2013-02-06 03:24:00,
2013-02-05 22:25:00,39.9,31.9,30.08,NNW,331,1.6,2.3,73,0.00,CLR,OVC,0.00,0.0,WeatherDisplay:10.37,2013-02-06 03:25:00,
2013-02-05 22:26:00,39.9,31.9,30.08,NNW,331,1.9,2.3,73,0.00,CLR,OVC,0.00,0.0,WeatherDisplay:10.37,2013-02-06 03:26:00,
2013-02-05 22:29:00,39.8,32.2,30.08,NNW,331,3.4,4.0,74,0.00,CLR,OVC,0.00,0.0,WeatherDisplay:10.37,2013-02-06 03:29:00,
2013-02-05 22:31:00,39.6,32.0,30.08,NNW,331,1.1,2.3,74,0.00,CLR,OVC,0.00,0.0,WeatherDisplay:10.37,2013-02-06 03:31:00,
2013-02-05 22:32:00,39.6,32.0,30.08,NNW,331,0.4,2.3,74,0.00,CLR,OVC,0.00,0.0,WeatherDisplay:10.37,2013-02-06 03:32:00,
2013-02-05 22:36:00,39.3,31.7,30.08,NNW,331,2.1,3.5,74,0.00,,OVC,0.00,0.0,WeatherDisplay:10.37,2013-02-06 03:36:00,
2013-02-05 22:40:00,39.3,32.0,30.08,NNW,331,3.1,3.5,75,0.00,,OVC,0.00,0.0,WeatherDisplay:10.37,2013-02-06 03:40:00,
2013-02-05 22:41:00,39.3,32.0,30.08,NNW,331,2.5,3.5,75,0.00,,OVC,0.00,0.0,WeatherDisplay:10.37,2013-02-06 03:41:00,
2013-02-05 22:46:00,39.1,31.8,30.08,NNW,331,0.0,0.0,75,0.00,,OVC,0.00,0.0,WeatherDisplay:10.37,2013-02-06 03:46:00,
2013-02-05 22:47:00,39.1,31.8,30.08,NNW,331,0.9,3.0,75,0.00,,OVC,0.00,0.0,WeatherDisplay:10.37,2013-02-06 03:47:00,
2013-02-05 22:51:00,39.5,32.6,30.08,NNW,331,3.0,4.0,76,0.00,,OVC,0.00,0.0,WeatherDisplay:10.37,2013-02-06 03:51:00,
2013-02-05 22:52:00,39.5,32.2,30.08,NNW,331,2.9,4.0,75,0.00,,OVC,0.00,0.0,WeatherDisplay:10.37,2013-02-06 03:52:00,
2013-02-05 22:56:00,39.3,32.0,30.08,NNW,331,2.2,3.5,75,0.00,,OVC,0.00,0.0,WeatherDisplay:10.37,2013-02-06 03:56:00,
2013-02-05 22:57:00,39.3,31.7,30.08,NNW,331,2.3,3.5,74,0.00,,OVC,0.00,0.0,WeatherDisplay:10.37,2013-02-06 03:57:00,
2013-02-05 22:58:00,39.2,31.6,30.08,NNW,331,2.2,3.5,74,0.00,,OVC,0.00,0.0,WeatherDisplay:10.37,2013-02-06 03:58:00,
2013-02-05 23:01:00,38.9,31.3,30.08,NNW,331,0.1,2.3,74,0.00,,OVC,0.00,0.0,WeatherDisplay:10.37,2013-02-06 04:01:00,
2013-02-05 23:03:00,38.6,31.4,30.08,NNW,331,0.0,0.0,75,0.00,,OVC,0.00,0.0,WeatherDisplay:10.37,2013-02-06 04:03:00,
2013-02-05 23:04:00,38.5,31.3,30.08,NNW,331,0.0,0.0,75,0.00,,OVC,0.00,0.0,WeatherDisplay:10.37,2013-02-06 04:04:00,
2013-02-05 23:07:00,38.0,31.1,30.08,NNW,331,0.0,0.0,76,0.00,,OVC,0.00,0.0,WeatherDisplay:10.37,2013-02-06 04:07:00,
2013-02-05 23:08:00,37.8,30.9,30.08,NNW,331,0.0,0.0,76,0.00,,OVC,0.00,0.0,WeatherDisplay:10.37,2013-02-06 04:08:00,
2013-02-05 23:09:00,37.6,31.0,30.08,NNW,331,0.0,0.0,77,0.00,,OVC,0.00,0.0,WeatherDisplay:10.37,2013-02-06 04:09:00,
2013-02-05 23:11:00,37.3,30.7,30.08,NNW,331,0.0,0.0,77,0.00,,OVC,0.00,0.0,WeatherDisplay:10.37,2013-02-06 04:11:00,
2013-02-05 23:13:00,37.2,31.0,30.08,NNW,331,0.0,0.0,78,0.00,,OVC,0.00,0.0,WeatherDisplay:10.37,2013-02-06 04:13:00,
2013-02-05 23:14:00,37.2,31.0,30.08,NNW,331,0.0,0.0,78,0.00,,OVC,0.00,0.0,WeatherDisplay:10.37,2013-02-06 04:14:00,
2013-02-05 23:15:00,37.2,31.0,30.08,NNW,331,0.0,2.0,78,0.00,,OVC,0.00,0.0,WeatherDisplay:10.37,2013-02-06 04:15:00,
2013-02-05 23:18:00,37.2,31.3,30.08,NNW,331,0.0,0.0,79,0.00,,OVC,0.00,0.0,WeatherDisplay:10.37,2013-02-06 04:18:00,
2013-02-05 23:19:00,37.2,31.3,30.08,NNW,331,0.0,0.0,79,0.00,,OVC,0.00,0.0,WeatherDisplay:10.37,2013-02-06 04:19:00,
2013-02-05 23:20:00,37.3,31.4,30.08,NNW,331,0.0,0.0,79,0.00,,OVC,0.00,0.0,WeatherDisplay:10.37,2013-02-06 04:20:00,
2013-02-05 23:22:00,37.3,31.4,30.08,NNW,331,0.0,0.0,79,0.00,,OVC,0.00,0.0,WeatherDisplay:10.37,2013-02-06 04:22:00,
2013-02-05 23:24:00,37.3,31.4,30.08,NNW,331,0.0,0.0,79,0.00,,OVC,0.00,0.0,WeatherDisplay:10.37,2013-02-06 04:24:00,
2013-02-05 23:25:00,37.3,31.4,30.08,NNW,331,0.0,0.0,79,0.00,,OVC,0.00,0.0,WeatherDisplay:10.37,2013-02-06 04:25:00,
2013-02-05 23:27:00,37.3,31.4,30.08,NNW,331,0.0,0.0,79,0.00,,OVC,0.00,0.0,WeatherDisplay:10.37,2013-02-06 04:27:00,
2013-02-05 23:30:00,37.2,31.3,30.08,NNW,331,0.0,0.0,79,0.00,,OVC,0.00,0.0,WeatherDisplay:10.37,2013-02-06 04:30:00,
2013-02-05 23:34:00,36.8,31.2,30.08,NNW,331,0.0,0.0,80,0.00,,OVC,0.00,0.0,WeatherDisplay:10.37,2013-02-06 04:34:00,
2013-02-05 23:35:00,36.8,31.2,30.08,NNW,331,0.0,0.0,80,0.00,,OVC,0.00,0.0,WeatherDisplay:10.37,2013-02-06 04:35:00,
2013-02-05 23:37:00,36.5,31.2,30.08,NNW,331,0.0,0.0,81,0.00,,OVC,0.00,0.0,WeatherDisplay:10.37,2013-02-06 04:37:00,
2013-02-05 23:41:00,36.3,31.0,30.08,NNW,331,0.0,0.0,81,0.00,,OVC,0.00,0.0,WeatherDisplay:10.37,2013-02-06 04:41:00,
2013-02-05 23:42:00,36.3,31.0,30.08,NNW,331,0.0,0.0,81,0.00,,OVC,0.00,0.0,WeatherDisplay:10.37,2013-02-06 04:42:00,
2013-02-05 23:45:00,36.5,31.5,30.08,NNW,331,0.0,0.0,82,0.00,,OVC,0.00,0.0,WeatherDisplay:10.37,2013-02-06 04:45:00,
2013-02-05 23:46:00,36.6,31.6,30.08,NNW,331,0.0,0.0,82,0.00,,OVC,0.00,0.0,WeatherDisplay:10.37,2013-02-06 04:46:00,
2013-02-05 23:47:00,36.6,31.6,30.08,NNW,331,0.0,0.0,82,0.00,,OVC,0.00,0.0,WeatherDisplay:10.37,2013-02-06 04:47:00,
2013-02-05 23:48:00,36.8,31.8,30.08,NNW,331,0.0,0.0,82,0.00,,OVC,0.00,0.0,WeatherDisplay:10.37,2013-02-06 04:48:00,
2013-02-05 23:50:00,36.9,32.2,30.08,NNW,331,0.0,0.0,83,0.00,,OVC,0.00,0.0,WeatherDisplay:10.37,2013-02-06 04:50:00,
2013-02-05 23:51:00,36.9,32.2,30.08,NNW,331,0.0,0.0,83,0.00,,OVC,0.00,0.0,WeatherDisplay:10.37,2013-02-06 04:51:00,
2013-02-05 23:53:00,37.0,32.0,30.08,NNW,331,0.0,0.0,82,0.00,,OVC,0.00,0.0,WeatherDisplay:10.37,2013-02-06 04:53:00,
2013-02-05 23:55:00,36.9,31.6,30.08,NNW,331,0.0,0.0,81,0.00,,OVC,0.00,0.0,WeatherDisplay:10.37,2013-02-06 04:55:00,
2013-02-05 23:57:00,36.8,31.5,30.08,NNW,331,0.0,0.0,81,0.00,,OVC,0.00,0.0,WeatherDisplay:10.37,2013-02-06 04:57:00,
2013-02-05 23:58:00,36.8,31.5,30.08,NNW,331,0.0,0.0,81,0.00,,OVC,0.00,0.0,WeatherDisplay:10.37,2013-02-06 04:58:00,